<?xml version='1.0' encoding='utf-8'?>
<gpx xmlns="http://www.topografix.com/GPX/1/1" xmlns:om="http://www.oruxmaps.com/oruxmapsextensions/1/0" xmlns:xsi="http://www.w3.org/2001/XMLSchema-instance" creator="OruxMaps v.6.0.7 Donate" version="1.1" xsi:schemaLocation="http://www.topografix.com/GPX/1/1 http://www.topografix.com/GPX/1/1/gpx.xsd">
<metadata>
<name>2015-04-27 09:02</name>
<desc />
<link href="http://www.oruxmaps.com">
<text>OruxMaps</text>
</link>
<time>2015-04-27T06:02:21Z</time><bounds maxlat="35.1159427" maxlon="32.8291498" minlat="34.9617573" minlon="32.5032409" />
</metadata>
<trk>
<name>2015-04-27 09:02</name>
<desc>&lt;h1&gt;OruxMaps&lt;/h1&gt;&lt;br /&gt;&lt;hr align="center" width="480" style="height: 2px; width: 517px"/&gt;&lt;h2&gt;Name: 2015-04-27 09:02&lt;/h2&gt;&lt;br /&gt;&lt;p&gt;Start time: 04/27/2015 09:03&lt;/p&gt;&lt;p&gt;Finish time: 04/27/2015 18:47&lt;/p&gt;&lt;p&gt;Distance: 67km (09:44)&lt;/p&gt;&lt;p&gt;Moving time: 06:41&lt;/p&gt;&lt;p&gt;Average speed: 6.9km/h&lt;/p&gt;&lt;p&gt;Avg. Speed Mov.: 10km/h&lt;/p&gt;&lt;p&gt;Max. Speed: 47.5km/h&lt;/p&gt;&lt;p&gt;Minimum altitude: -2m&lt;/p&gt;&lt;p&gt;Maximum altitude: 1257m&lt;/p&gt;&lt;p&gt;Ascent speed: 383.9m/h&lt;/p&gt;&lt;p&gt;Descent speed: -479.1m/h&lt;/p&gt;&lt;p&gt;Elevation gain: 2307m&lt;/p&gt;&lt;p&gt;Elevation loss: -1182m&lt;/p&gt;&lt;p&gt;Ascent time: 06:00&lt;/p&gt;&lt;p&gt;Descent time: 02:28&lt;/p&gt;&lt;hr align="center" width="480" style="height: 2px; width: 517px"/&gt;</desc>
<type>Undefined</type>
<extensions>
<om:oruxmapsextensions>
<om:ext type="TYPE" subtype="0">0</om:ext>
</om:oruxmapsextensions>
</extensions>
<trkseg>
<trkpt lat="35.1112206" lon="32.5079370">
<ele>5.2</ele>
<time>2015-04-27T06:03:11Z</time>
</trkpt>
<trkpt lat="35.1119425" lon="32.5082806">
<ele>5.7</ele>
<time>2015-04-27T06:03:26Z</time>
</trkpt>
<trkpt lat="35.1118762" lon="32.5083922">
<ele>5.3</ele>
<time>2015-04-27T06:03:27Z</time>
</trkpt>
<trkpt lat="35.1120420" lon="32.5085118">
<ele>5.8</ele>
<time>2015-04-27T06:03:30Z</time>
</trkpt>
<trkpt lat="35.1159427" lon="32.5101994">
<ele>6.4</ele>
<time>2015-04-27T06:04:53Z</time>
</trkpt>
<trkpt lat="35.1129508" lon="32.5089503">
<ele>4.9</ele>
<time>2015-04-27T06:11:04Z</time>
</trkpt>
<trkpt lat="35.1106366" lon="32.5075793">
<ele>7.0</ele>
<time>2015-04-27T06:11:49Z</time>
</trkpt>
<trkpt lat="35.1057592" lon="32.5042598">
<ele>4.5</ele>
<time>2015-04-27T06:13:29Z</time>
</trkpt>
<trkpt lat="35.1042488" lon="32.5038322">
<ele>5.6</ele>
<time>2015-04-27T06:14:26Z</time>
</trkpt>
<trkpt lat="35.1032776" lon="32.5032464">
<ele>4.3</ele>
<time>2015-04-27T06:14:58Z</time>
</trkpt>
<trkpt lat="35.1035238" lon="32.5039392">
<ele>6.1</ele>
<time>2015-04-27T06:15:16Z</time>
</trkpt>
<trkpt lat="35.1035033" lon="32.5043302">
<ele>8.2</ele>
<time>2015-04-27T06:15:26Z</time>
</trkpt>
<trkpt lat="35.1027274" lon="32.5048769">
<ele>14.8</ele>
<time>2015-04-27T06:16:02Z</time>
</trkpt>
<trkpt lat="35.1021909" lon="32.5055450">
<ele>18.4</ele>
<time>2015-04-27T06:16:41Z</time>
</trkpt>
<trkpt lat="35.1014936" lon="32.5074929">
<ele>29.0</ele>
<time>2015-04-27T06:18:00Z</time>
</trkpt>
<trkpt lat="35.1008813" lon="32.5083770">
<ele>35.9</ele>
<time>2015-04-27T06:19:05Z</time>
</trkpt>
<trkpt lat="35.1010991" lon="32.5113293">
<ele>45.1</ele>
<time>2015-04-27T06:21:08Z</time>
</trkpt>
<trkpt lat="35.1013115" lon="32.5124480">
<ele>47.0</ele>
<time>2015-04-27T06:21:21Z</time>
</trkpt>
<trkpt lat="35.1011404" lon="32.5132137">
<ele>41.7</ele>
<time>2015-04-27T06:21:32Z</time>
</trkpt>
<trkpt lat="35.1006417" lon="32.5138436">
<ele>44.8</ele>
<time>2015-04-27T06:21:47Z</time>
</trkpt>
<trkpt lat="35.1004110" lon="32.5146085">
<ele>47.6</ele>
<time>2015-04-27T06:22:11Z</time>
</trkpt>
<trkpt lat="35.1011885" lon="32.5164954">
<ele>58.9</ele>
<time>2015-04-27T06:24:26Z</time>
</trkpt>
<trkpt lat="35.1007273" lon="32.5186556">
<ele>69.0</ele>
<time>2015-04-27T06:26:18Z</time>
</trkpt>
<trkpt lat="35.1009656" lon="32.5195078">
<ele>76.0</ele>
<time>2015-04-27T06:29:12Z</time>
</trkpt>
<trkpt lat="35.1004650" lon="32.5196545">
<ele>72.0</ele>
<time>2015-04-27T06:29:28Z</time>
</trkpt>
<trkpt lat="35.1003015" lon="32.5202029">
<ele>78.3</ele>
<time>2015-04-27T06:29:52Z</time>
</trkpt>
<trkpt lat="35.0997600" lon="32.5206892">
<ele>78.8</ele>
<time>2015-04-27T06:30:32Z</time>
</trkpt>
<trkpt lat="35.0995681" lon="32.5219699">
<ele>84.9</ele>
<time>2015-04-27T06:31:41Z</time>
</trkpt>
<trkpt lat="35.0997077" lon="32.5225536">
<ele>91.9</ele>
<time>2015-04-27T06:32:12Z</time>
</trkpt>
<trkpt lat="35.0996177" lon="32.5228099">
<ele>95.3</ele>
<time>2015-04-27T06:32:23Z</time>
</trkpt>
<trkpt lat="35.0985072" lon="32.5234020">
<ele>95.5</ele>
<time>2015-04-27T06:33:22Z</time>
</trkpt>
<trkpt lat="35.0983294" lon="32.5244020">
<ele>100.9</ele>
<time>2015-04-27T06:33:42Z</time>
</trkpt>
<trkpt lat="35.0979531" lon="32.5244934">
<ele>99.5</ele>
<time>2015-04-27T06:33:57Z</time>
</trkpt>
<trkpt lat="35.0970482" lon="32.5254775">
<ele>103.9</ele>
<time>2015-04-27T06:35:25Z</time>
</trkpt>
<trkpt lat="35.0968060" lon="32.5261850">
<ele>109.1</ele>
<time>2015-04-27T06:35:49Z</time>
</trkpt>
<trkpt lat="35.0963810" lon="32.5263662">
<ele>105.1</ele>
<time>2015-04-27T06:36:16Z</time>
</trkpt>
<trkpt lat="35.0962099" lon="32.5267911">
<ele>113.6</ele>
<time>2015-04-27T06:37:06Z</time>
</trkpt>
<trkpt lat="35.0958214" lon="32.5270820">
<ele>124.3</ele>
<time>2015-04-27T06:37:42Z</time>
</trkpt>
<trkpt lat="35.0949355" lon="32.5270471">
<ele>114.0</ele>
<time>2015-04-27T06:38:17Z</time>
</trkpt>
<trkpt lat="35.0947301" lon="32.5273725">
<ele>111.6</ele>
<time>2015-04-27T06:38:29Z</time>
</trkpt>
<trkpt lat="35.0953615" lon="32.5305361">
<ele>123.6</ele>
<time>2015-04-27T06:40:27Z</time>
</trkpt>
<trkpt lat="35.0956236" lon="32.5308423">
<ele>127.4</ele>
<time>2015-04-27T06:40:41Z</time>
</trkpt>
<trkpt lat="35.0955073" lon="32.5313023">
<ele>125.8</ele>
<time>2015-04-27T06:40:55Z</time>
</trkpt>
<trkpt lat="35.0957008" lon="32.5318615">
<ele>128.6</ele>
<time>2015-04-27T06:41:13Z</time>
</trkpt>
<trkpt lat="35.0956180" lon="32.5321599">
<ele>129.2</ele>
<time>2015-04-27T06:41:26Z</time>
</trkpt>
<trkpt lat="35.0959942" lon="32.5327326">
<ele>140.9</ele>
<time>2015-04-27T06:42:09Z</time>
</trkpt>
<trkpt lat="35.0957995" lon="32.5332632">
<ele>146.0</ele>
<time>2015-04-27T06:42:42Z</time>
</trkpt>
<trkpt lat="35.0950201" lon="32.5343663">
<ele>144.4</ele>
<time>2015-04-27T06:43:37Z</time>
</trkpt>
<trkpt lat="35.0949440" lon="32.5358732">
<ele>143.6</ele>
<time>2015-04-27T06:44:10Z</time>
</trkpt>
<trkpt lat="35.0951876" lon="32.5363594">
<ele>151.1</ele>
<time>2015-04-27T06:44:26Z</time>
</trkpt>
<trkpt lat="35.0949761" lon="32.5366993">
<ele>147.9</ele>
<time>2015-04-27T06:44:38Z</time>
</trkpt>
<trkpt lat="35.0947376" lon="32.5380215">
<ele>155.8</ele>
<time>2015-04-27T06:45:40Z</time>
</trkpt>
<trkpt lat="35.0948033" lon="32.5385170">
<ele>166.1</ele>
<time>2015-04-27T06:46:01Z</time>
</trkpt>
<trkpt lat="35.0944050" lon="32.5388022">
<ele>161.4</ele>
<time>2015-04-27T06:46:25Z</time>
</trkpt>
<trkpt lat="35.0942366" lon="32.5397815">
<ele>173.0</ele>
<time>2015-04-27T06:47:24Z</time>
</trkpt>
<trkpt lat="35.0940438" lon="32.5400762">
<ele>169.4</ele>
<time>2015-04-27T06:53:22Z</time>
</trkpt>
<trkpt lat="35.0942302" lon="32.5407429">
<ele>182.8</ele>
<time>2015-04-27T06:53:40Z</time>
</trkpt>
<trkpt lat="35.0936544" lon="32.5407972">
<ele>171.2</ele>
<time>2015-04-27T06:54:10Z</time>
</trkpt>
<trkpt lat="35.0934993" lon="32.5414508">
<ele>174.6</ele>
<time>2015-04-27T06:54:30Z</time>
</trkpt>
<trkpt lat="35.0928110" lon="32.5422270">
<ele>168.9</ele>
<time>2015-04-27T06:55:07Z</time>
</trkpt>
<trkpt lat="35.0929120" lon="32.5426304">
<ele>171.4</ele>
<time>2015-04-27T06:55:26Z</time>
</trkpt>
<trkpt lat="35.0926611" lon="32.5425390">
<ele>167.2</ele>
<time>2015-04-27T06:56:22Z</time>
</trkpt>
<trkpt lat="35.0923781" lon="32.5428102">
<ele>177.2</ele>
<time>2015-04-27T06:57:19Z</time>
</trkpt>
<trkpt lat="35.0923662" lon="32.5422039">
<ele>177.5</ele>
<time>2015-04-27T06:59:02Z</time>
</trkpt>
<trkpt lat="35.0919943" lon="32.5421775">
<ele>186.3</ele>
<time>2015-04-27T06:59:30Z</time>
</trkpt>
<trkpt lat="35.0921636" lon="32.5410333">
<ele>176.6</ele>
<time>2015-04-27T07:00:16Z</time>
</trkpt>
<trkpt lat="35.0917821" lon="32.5408401">
<ele>179.5</ele>
<time>2015-04-27T07:00:38Z</time>
</trkpt>
<trkpt lat="35.0919717" lon="32.5414584">
<ele>184.3</ele>
<time>2015-04-27T07:01:14Z</time>
</trkpt>
<trkpt lat="35.0916721" lon="32.5423135">
<ele>199.4</ele>
<time>2015-04-27T07:02:03Z</time>
</trkpt>
<trkpt lat="35.0919727" lon="32.5430180">
<ele>194.8</ele>
<time>2015-04-27T07:02:36Z</time>
</trkpt>
<trkpt lat="35.0921296" lon="32.5443895">
<ele>206.7</ele>
<time>2015-04-27T07:03:24Z</time>
</trkpt>
<trkpt lat="35.0919907" lon="32.5454392">
<ele>195.3</ele>
<time>2015-04-27T07:03:58Z</time>
</trkpt>
<trkpt lat="35.0914984" lon="32.5460109">
<ele>196.1</ele>
<time>2015-04-27T07:04:25Z</time>
</trkpt>
<trkpt lat="35.0909793" lon="32.5461759">
<ele>200.3</ele>
<time>2015-04-27T07:04:46Z</time>
</trkpt>
<trkpt lat="35.0906300" lon="32.5467146">
<ele>204.5</ele>
<time>2015-04-27T07:05:11Z</time>
</trkpt>
<trkpt lat="35.0898573" lon="32.5471491">
<ele>207.8</ele>
<time>2015-04-27T07:05:52Z</time>
</trkpt>
<trkpt lat="35.0896608" lon="32.5479115">
<ele>215.1</ele>
<time>2015-04-27T07:06:34Z</time>
</trkpt>
<trkpt lat="35.0898507" lon="32.5490203">
<ele>220.0</ele>
<time>2015-04-27T07:07:34Z</time>
</trkpt>
<trkpt lat="35.0896078" lon="32.5492221">
<ele>219.7</ele>
<time>2015-04-27T07:07:53Z</time>
</trkpt>
<trkpt lat="35.0886311" lon="32.5492760">
<ele>233.7</ele>
<time>2015-04-27T07:09:15Z</time>
</trkpt>
<trkpt lat="35.0885698" lon="32.5494981">
<ele>235.8</ele>
<time>2015-04-27T07:09:28Z</time>
</trkpt>
<trkpt lat="35.0888576" lon="32.5499738">
<ele>236.5</ele>
<time>2015-04-27T07:10:03Z</time>
</trkpt>
<trkpt lat="35.0888404" lon="32.5503958">
<ele>238.0</ele>
<time>2015-04-27T07:10:26Z</time>
</trkpt>
<trkpt lat="35.0885063" lon="32.5507742">
<ele>236.0</ele>
<time>2015-04-27T07:10:59Z</time>
</trkpt>
<trkpt lat="35.0879316" lon="32.5508124">
<ele>243.4</ele>
<time>2015-04-27T07:11:40Z</time>
</trkpt>
<trkpt lat="35.0878536" lon="32.5513341">
<ele>246.4</ele>
<time>2015-04-27T07:12:10Z</time>
</trkpt>
<trkpt lat="35.0876229" lon="32.5516562">
<ele>254.3</ele>
<time>2015-04-27T07:12:32Z</time>
</trkpt>
<trkpt lat="35.0876808" lon="32.5522171">
<ele>258.5</ele>
<time>2015-04-27T07:13:02Z</time>
</trkpt>
<trkpt lat="35.0875259" lon="32.5529790">
<ele>263.2</ele>
<time>2015-04-27T07:22:14Z</time>
</trkpt>
<trkpt lat="35.0878838" lon="32.5531440">
<ele>255.0</ele>
<time>2015-04-27T07:22:26Z</time>
</trkpt>
<trkpt lat="35.0880651" lon="32.5537326">
<ele>250.6</ele>
<time>2015-04-27T07:22:47Z</time>
</trkpt>
<trkpt lat="35.0877515" lon="32.5545045">
<ele>246.4</ele>
<time>2015-04-27T07:23:13Z</time>
</trkpt>
<trkpt lat="35.0884693" lon="32.5544675">
<ele>246.2</ele>
<time>2015-04-27T07:24:02Z</time>
</trkpt>
<trkpt lat="35.0890472" lon="32.5548118">
<ele>258.4</ele>
<time>2015-04-27T07:24:48Z</time>
</trkpt>
<trkpt lat="35.0895033" lon="32.5545277">
<ele>251.4</ele>
<time>2015-04-27T07:25:33Z</time>
</trkpt>
<trkpt lat="35.0897076" lon="32.5548491">
<ele>254.2</ele>
<time>2015-04-27T07:35:15Z</time>
</trkpt>
<trkpt lat="35.0895838" lon="32.5553140">
<ele>262.4</ele>
<time>2015-04-27T07:36:07Z</time>
</trkpt>
<trkpt lat="35.0891330" lon="32.5560026">
<ele>272.2</ele>
<time>2015-04-27T07:37:05Z</time>
</trkpt>
<trkpt lat="35.0888081" lon="32.5559083">
<ele>277.4</ele>
<time>2015-04-27T07:37:33Z</time>
</trkpt>
<trkpt lat="35.0887504" lon="32.5561333">
<ele>278.1</ele>
<time>2015-04-27T07:37:57Z</time>
</trkpt>
<trkpt lat="35.0888961" lon="32.5556317">
<ele>274.4</ele>
<time>2015-04-27T07:38:33Z</time>
</trkpt>
<trkpt lat="35.0885828" lon="32.5552074">
<ele>271.8</ele>
<time>2015-04-27T07:38:54Z</time>
</trkpt>
<trkpt lat="35.0881508" lon="32.5551886">
<ele>265.9</ele>
<time>2015-04-27T07:39:16Z</time>
</trkpt>
<trkpt lat="35.0872127" lon="32.5557370">
<ele>275.6</ele>
<time>2015-04-27T07:39:59Z</time>
</trkpt>
<trkpt lat="35.0868514" lon="32.5555835">
<ele>265.4</ele>
<time>2015-04-27T07:40:17Z</time>
</trkpt>
<trkpt lat="35.0861987" lon="32.5563283">
<ele>279.3</ele>
<time>2015-04-27T07:40:54Z</time>
</trkpt>
<trkpt lat="35.0852104" lon="32.5565170">
<ele>275.3</ele>
<time>2015-04-27T07:41:38Z</time>
</trkpt>
<trkpt lat="35.0849580" lon="32.5572963">
<ele>298.8</ele>
<time>2015-04-27T07:42:13Z</time>
</trkpt>
<trkpt lat="35.0846594" lon="32.5571115">
<ele>289.1</ele>
<time>2015-04-27T07:42:31Z</time>
</trkpt>
<trkpt lat="35.0834846" lon="32.5576130">
<ele>291.4</ele>
<time>2015-04-27T07:43:42Z</time>
</trkpt>
<trkpt lat="35.0829104" lon="32.5582508">
<ele>297.7</ele>
<time>2015-04-27T07:44:18Z</time>
</trkpt>
<trkpt lat="35.0825613" lon="32.5584208">
<ele>290.6</ele>
<time>2015-04-27T07:44:38Z</time>
</trkpt>
<trkpt lat="35.0822474" lon="32.5589803">
<ele>291.0</ele>
<time>2015-04-27T07:45:05Z</time>
</trkpt>
<trkpt lat="35.0821725" lon="32.5596656">
<ele>294.7</ele>
<time>2015-04-27T07:45:33Z</time>
</trkpt>
<trkpt lat="35.0819389" lon="32.5600845">
<ele>293.6</ele>
<time>2015-04-27T07:45:51Z</time>
</trkpt>
<trkpt lat="35.0821488" lon="32.5609076">
<ele>304.4</ele>
<time>2015-04-27T07:46:33Z</time>
</trkpt>
<trkpt lat="35.0824588" lon="32.5613881">
<ele>328.2</ele>
<time>2015-04-27T07:46:58Z</time>
</trkpt>
<trkpt lat="35.0819724" lon="32.5613706">
<ele>314.0</ele>
<time>2015-04-27T07:47:26Z</time>
</trkpt>
<trkpt lat="35.0810801" lon="32.5618343">
<ele>307.6</ele>
<time>2015-04-27T07:48:22Z</time>
</trkpt>
<trkpt lat="35.0810318" lon="32.5620866">
<ele>312.5</ele>
<time>2015-04-27T07:48:36Z</time>
</trkpt>
<trkpt lat="35.0814013" lon="32.5626193">
<ele>315.0</ele>
<time>2015-04-27T07:49:01Z</time>
</trkpt>
<trkpt lat="35.0808662" lon="32.5637895">
<ele>324.8</ele>
<time>2015-04-27T07:50:02Z</time>
</trkpt>
<trkpt lat="35.0807265" lon="32.5645535">
<ele>334.0</ele>
<time>2015-04-27T07:50:39Z</time>
</trkpt>
<trkpt lat="35.0806114" lon="32.5641752">
<ele>338.8</ele>
<time>2015-04-27T07:51:11Z</time>
</trkpt>
<trkpt lat="35.0807127" lon="32.5629232">
<ele>347.5</ele>
<time>2015-04-27T07:52:37Z</time>
</trkpt>
<trkpt lat="35.0803218" lon="32.5622172">
<ele>350.6</ele>
<time>2015-04-27T07:53:41Z</time>
</trkpt>
<trkpt lat="35.0796691" lon="32.5623312">
<ele>359.0</ele>
<time>2015-04-27T07:54:34Z</time>
</trkpt>
<trkpt lat="35.0791144" lon="32.5621240">
<ele>358.4</ele>
<time>2015-04-27T07:55:24Z</time>
</trkpt>
<trkpt lat="35.0787300" lon="32.5623820">
<ele>362.4</ele>
<time>2015-04-27T07:56:05Z</time>
</trkpt>
<trkpt lat="35.0783417" lon="32.5630687">
<ele>363.0</ele>
<time>2015-04-27T07:57:01Z</time>
</trkpt>
<trkpt lat="35.0782376" lon="32.5636889">
<ele>372.0</ele>
<time>2015-04-27T07:57:42Z</time>
</trkpt>
<trkpt lat="35.0776593" lon="32.5645960">
<ele>359.6</ele>
<time>2015-04-27T08:15:36Z</time>
</trkpt>
<trkpt lat="35.0783732" lon="32.5650388">
<ele>375.4</ele>
<time>2015-04-27T08:16:15Z</time>
</trkpt>
<trkpt lat="35.0786494" lon="32.5655811">
<ele>373.7</ele>
<time>2015-04-27T08:16:31Z</time>
</trkpt>
<trkpt lat="35.0783810" lon="32.5662285">
<ele>374.9</ele>
<time>2015-04-27T08:16:46Z</time>
</trkpt>
<trkpt lat="35.0775376" lon="32.5670140">
<ele>379.3</ele>
<time>2015-04-27T08:17:37Z</time>
</trkpt>
<trkpt lat="35.0778934" lon="32.5686183">
<ele>386.0</ele>
<time>2015-04-27T08:18:50Z</time>
</trkpt>
<trkpt lat="35.0777299" lon="32.5690418">
<ele>387.7</ele>
<time>2015-04-27T08:19:01Z</time>
</trkpt>
<trkpt lat="35.0772988" lon="32.5694559">
<ele>402.5</ele>
<time>2015-04-27T08:19:23Z</time>
</trkpt>
<trkpt lat="35.0773247" lon="32.5684493">
<ele>408.1</ele>
<time>2015-04-27T08:20:40Z</time>
</trkpt>
<trkpt lat="35.0770268" lon="32.5678768">
<ele>413.1</ele>
<time>2015-04-27T08:21:23Z</time>
</trkpt>
<trkpt lat="35.0766903" lon="32.5676519">
<ele>422.8</ele>
<time>2015-04-27T08:21:56Z</time>
</trkpt>
<trkpt lat="35.0767807" lon="32.5665632">
<ele>412.7</ele>
<time>2015-04-27T08:23:04Z</time>
</trkpt>
<trkpt lat="35.0761488" lon="32.5661942">
<ele>416.9</ele>
<time>2015-04-27T08:24:41Z</time>
</trkpt>
<trkpt lat="35.0764417" lon="32.5667408">
<ele>430.4</ele>
<time>2015-04-27T08:26:36Z</time>
</trkpt>
<trkpt lat="35.0761431" lon="32.5680646">
<ele>460.9</ele>
<time>2015-04-27T08:28:08Z</time>
</trkpt>
<trkpt lat="35.0765677" lon="32.5683859">
<ele>444.7</ele>
<time>2015-04-27T08:28:41Z</time>
</trkpt>
<trkpt lat="35.0766854" lon="32.5686920">
<ele>445.6</ele>
<time>2015-04-27T08:28:59Z</time>
</trkpt>
<trkpt lat="35.0763451" lon="32.5699449">
<ele>447.7</ele>
<time>2015-04-27T08:30:12Z</time>
</trkpt>
<trkpt lat="35.0756876" lon="32.5703592">
<ele>464.8</ele>
<time>2015-04-27T08:31:11Z</time>
</trkpt>
<trkpt lat="35.0758750" lon="32.5713514">
<ele>459.0</ele>
<time>2015-04-27T08:32:17Z</time>
</trkpt>
<trkpt lat="35.0751824" lon="32.5716887">
<ele>467.2</ele>
<time>2015-04-27T08:33:14Z</time>
</trkpt>
<trkpt lat="35.0744966" lon="32.5716308">
<ele>480.7</ele>
<time>2015-04-27T08:34:00Z</time>
</trkpt>
<trkpt lat="35.0745067" lon="32.5721339">
<ele>481.1</ele>
<time>2015-04-27T08:34:31Z</time>
</trkpt>
<trkpt lat="35.0743610" lon="32.5724557">
<ele>486.0</ele>
<time>2015-04-27T08:34:51Z</time>
</trkpt>
<trkpt lat="35.0738540" lon="32.5728070">
<ele>496.6</ele>
<time>2015-04-27T08:35:35Z</time>
</trkpt>
<trkpt lat="35.0732648" lon="32.5736105">
<ele>504.5</ele>
<time>2015-04-27T08:36:38Z</time>
</trkpt>
<trkpt lat="35.0734647" lon="32.5737378">
<ele>497.7</ele>
<time>2015-04-27T08:36:59Z</time>
</trkpt>
<trkpt lat="35.0749837" lon="32.5732995">
<ele>497.3</ele>
<time>2015-04-27T08:38:57Z</time>
</trkpt>
<trkpt lat="35.0757212" lon="32.5737279">
<ele>510.8</ele>
<time>2015-04-27T08:40:02Z</time>
</trkpt>
<trkpt lat="35.0756007" lon="32.5756966">
<ele>530.5</ele>
<time>2015-04-27T08:42:00Z</time>
</trkpt>
<trkpt lat="35.0757380" lon="32.5760915">
<ele>526.1</ele>
<time>2015-04-27T08:42:30Z</time>
</trkpt>
<trkpt lat="35.0754529" lon="32.5766880">
<ele>547.0</ele>
<time>2015-04-27T08:43:12Z</time>
</trkpt>
<trkpt lat="35.0758003" lon="32.5770714">
<ele>536.1</ele>
<time>2015-04-27T08:43:46Z</time>
</trkpt>
<trkpt lat="35.0758678" lon="32.5774906">
<ele>533.0</ele>
<time>2015-04-27T08:44:11Z</time>
</trkpt>
<trkpt lat="35.0757418" lon="32.5776759">
<ele>533.4</ele>
<time>2015-04-27T08:44:26Z</time>
</trkpt>
<trkpt lat="35.0749533" lon="32.5778774">
<ele>556.2</ele>
<time>2015-04-27T08:45:25Z</time>
</trkpt>
<trkpt lat="35.0755005" lon="32.5785252">
<ele>556.1</ele>
<time>2015-04-27T08:46:16Z</time>
</trkpt>
<trkpt lat="35.0758348" lon="32.5794698">
<ele>550.2</ele>
<time>2015-04-27T08:47:17Z</time>
</trkpt>
<trkpt lat="35.0756849" lon="32.5796425">
<ele>550.6</ele>
<time>2015-04-27T08:47:33Z</time>
</trkpt>
<trkpt lat="35.0751487" lon="32.5796798">
<ele>565.3</ele>
<time>2015-04-27T08:48:13Z</time>
</trkpt>
<trkpt lat="35.0748225" lon="32.5807214">
<ele>560.4</ele>
<time>2015-04-27T08:49:21Z</time>
</trkpt>
<trkpt lat="35.0743142" lon="32.5812017">
<ele>563.7</ele>
<time>2015-04-27T09:05:47Z</time>
</trkpt>
<trkpt lat="35.0733063" lon="32.5808803">
<ele>591.8</ele>
<time>2015-04-27T09:06:57Z</time>
</trkpt>
<trkpt lat="35.0734087" lon="32.5819320">
<ele>586.2</ele>
<time>2015-04-27T09:08:15Z</time>
</trkpt>
<trkpt lat="35.0732124" lon="32.5822151">
<ele>587.2</ele>
<time>2015-04-27T09:08:39Z</time>
</trkpt>
<trkpt lat="35.0722700" lon="32.5828093">
<ele>596.2</ele>
<time>2015-04-27T09:10:02Z</time>
</trkpt>
<trkpt lat="35.0701248" lon="32.5833476">
<ele>622.4</ele>
<time>2015-04-27T09:12:40Z</time>
</trkpt>
<trkpt lat="35.0702821" lon="32.5839242">
<ele>625.2</ele>
<time>2015-04-27T09:13:23Z</time>
</trkpt>
<trkpt lat="35.0702034" lon="32.5845647">
<ele>632.3</ele>
<time>2015-04-27T09:14:08Z</time>
</trkpt>
<trkpt lat="35.0707523" lon="32.5842971">
<ele>631.3</ele>
<time>2015-04-27T09:15:03Z</time>
</trkpt>
<trkpt lat="35.0713264" lon="32.5844412">
<ele>645.2</ele>
<time>2015-04-27T09:15:50Z</time>
</trkpt>
<trkpt lat="35.0716926" lon="32.5848199">
<ele>645.9</ele>
<time>2015-04-27T09:16:26Z</time>
</trkpt>
<trkpt lat="35.0717558" lon="32.5854534">
<ele>661.7</ele>
<time>2015-04-27T09:17:05Z</time>
</trkpt>
<trkpt lat="35.0724970" lon="32.5859011">
<ele>652.2</ele>
<time>2015-04-27T09:18:09Z</time>
</trkpt>
<trkpt lat="35.0721154" lon="32.5875059">
<ele>671.7</ele>
<time>2015-04-27T09:20:00Z</time>
</trkpt>
<trkpt lat="35.0724941" lon="32.5876324">
<ele>670.3</ele>
<time>2015-04-27T09:20:34Z</time>
</trkpt>
<trkpt lat="35.0730385" lon="32.5874675">
<ele>668.9</ele>
<time>2015-04-27T09:21:18Z</time>
</trkpt>
<trkpt lat="35.0733113" lon="32.5878113">
<ele>670.7</ele>
<time>2015-04-27T09:31:09Z</time>
</trkpt>
<trkpt lat="35.0730857" lon="32.5883684">
<ele>671.9</ele>
<time>2015-04-27T09:31:52Z</time>
</trkpt>
<trkpt lat="35.0724410" lon="32.5890219">
<ele>677.8</ele>
<time>2015-04-27T09:33:05Z</time>
</trkpt>
<trkpt lat="35.0718159" lon="32.5892609">
<ele>700.9</ele>
<time>2015-04-27T09:33:56Z</time>
</trkpt>
<trkpt lat="35.0717202" lon="32.5906379">
<ele>701.8</ele>
<time>2015-04-27T09:35:18Z</time>
</trkpt>
<trkpt lat="35.0718778" lon="32.5911516">
<ele>696.4</ele>
<time>2015-04-27T09:35:46Z</time>
</trkpt>
<trkpt lat="35.0715614" lon="32.5916669">
<ele>695.0</ele>
<time>2015-04-27T09:36:23Z</time>
</trkpt>
<trkpt lat="35.0713202" lon="32.5916395">
<ele>690.2</ele>
<time>2015-04-27T09:36:38Z</time>
</trkpt>
<trkpt lat="35.0708959" lon="32.5910851">
<ele>709.9</ele>
<time>2015-04-27T09:37:21Z</time>
</trkpt>
<trkpt lat="35.0700090" lon="32.5907628">
<ele>722.3</ele>
<time>2015-04-27T09:38:34Z</time>
</trkpt>
<trkpt lat="35.0697940" lon="32.5908925">
<ele>726.5</ele>
<time>2015-04-27T09:38:59Z</time>
</trkpt>
<trkpt lat="35.0701764" lon="32.5916152">
<ele>723.2</ele>
<time>2015-04-27T09:39:54Z</time>
</trkpt>
<trkpt lat="35.0698677" lon="32.5919395">
<ele>726.6</ele>
<time>2015-04-27T09:40:28Z</time>
</trkpt>
<trkpt lat="35.0693442" lon="32.5921327">
<ele>743.7</ele>
<time>2015-04-27T09:41:12Z</time>
</trkpt>
<trkpt lat="35.0690475" lon="32.5930313">
<ele>749.3</ele>
<time>2015-04-27T09:42:07Z</time>
</trkpt>
<trkpt lat="35.0695466" lon="32.5932927">
<ele>740.5</ele>
<time>2015-04-27T09:42:48Z</time>
</trkpt>
<trkpt lat="35.0697340" lon="32.5936988">
<ele>741.3</ele>
<time>2015-04-27T09:43:18Z</time>
</trkpt>
<trkpt lat="35.0690938" lon="32.5942052">
<ele>759.3</ele>
<time>2015-04-27T09:44:16Z</time>
</trkpt>
<trkpt lat="35.0693694" lon="32.5945309">
<ele>758.4</ele>
<time>2015-04-27T09:44:52Z</time>
</trkpt>
<trkpt lat="35.0694054" lon="32.5956354">
<ele>764.4</ele>
<time>2015-04-27T09:46:02Z</time>
</trkpt>
<trkpt lat="35.0690998" lon="32.5959621">
<ele>773.6</ele>
<time>2015-04-27T09:46:31Z</time>
</trkpt>
<trkpt lat="35.0690699" lon="32.5968329">
<ele>774.8</ele>
<time>2015-04-27T09:47:26Z</time>
</trkpt>
<trkpt lat="35.0685835" lon="32.5973340">
<ele>778.9</ele>
<time>2015-04-27T09:48:16Z</time>
</trkpt>
<trkpt lat="35.0691572" lon="32.5974716">
<ele>776.4</ele>
<time>2015-04-27T09:49:52Z</time>
</trkpt>
<trkpt lat="35.0688440" lon="32.5984056">
<ele>774.5</ele>
<time>2015-04-27T09:52:53Z</time>
</trkpt>
<trkpt lat="35.0685337" lon="32.5985674">
<ele>780.2</ele>
<time>2015-04-27T09:53:03Z</time>
</trkpt>
<trkpt lat="35.0684042" lon="32.5990496">
<ele>783.6</ele>
<time>2015-04-27T09:53:13Z</time>
</trkpt>
<trkpt lat="35.0683918" lon="32.5996443">
<ele>783.9</ele>
<time>2015-04-27T09:53:24Z</time>
</trkpt>
<trkpt lat="35.0688481" lon="32.6009445">
<ele>774.8</ele>
<time>2015-04-27T09:53:58Z</time>
</trkpt>
<trkpt lat="35.0687217" lon="32.6010576">
<ele>771.1</ele>
<time>2015-04-27T09:54:04Z</time>
</trkpt>
<trkpt lat="35.0681931" lon="32.6007470">
<ele>769.8</ele>
<time>2015-04-27T09:54:20Z</time>
</trkpt>
<trkpt lat="35.0678436" lon="32.6002003">
<ele>776.6</ele>
<time>2015-04-27T09:54:38Z</time>
</trkpt>
<trkpt lat="35.0675372" lon="32.5999248">
<ele>786.5</ele>
<time>2015-04-27T09:54:48Z</time>
</trkpt>
<trkpt lat="35.0674051" lon="32.5999892">
<ele>794.9</ele>
<time>2015-04-27T09:54:52Z</time>
</trkpt>
<trkpt lat="35.0671709" lon="32.6018085">
<ele>797.0</ele>
<time>2015-04-27T09:55:30Z</time>
</trkpt>
<trkpt lat="35.0674336" lon="32.6034802">
<ele>791.8</ele>
<time>2015-04-27T09:56:02Z</time>
</trkpt>
<trkpt lat="35.0667080" lon="32.6043468">
<ele>792.2</ele>
<time>2015-04-27T09:57:23Z</time>
</trkpt>
<trkpt lat="35.0666176" lon="32.6052269">
<ele>784.1</ele>
<time>2015-04-27T09:58:42Z</time>
</trkpt>
<trkpt lat="35.0658659" lon="32.6056722">
<ele>800.7</ele>
<time>2015-04-27T09:59:15Z</time>
</trkpt>
<trkpt lat="35.0665916" lon="32.6063777">
<ele>803.3</ele>
<time>2015-04-27T09:59:45Z</time>
</trkpt>
<trkpt lat="35.0672772" lon="32.6066459">
<ele>795.3</ele>
<time>2015-04-27T10:00:16Z</time>
</trkpt>
<trkpt lat="35.0673100" lon="32.6072224">
<ele>792.5</ele>
<time>2015-04-27T10:00:42Z</time>
</trkpt>
<trkpt lat="35.0666767" lon="32.6075089">
<ele>798.9</ele>
<time>2015-04-27T10:01:08Z</time>
</trkpt>
<trkpt lat="35.0662119" lon="32.6081557">
<ele>791.6</ele>
<time>2015-04-27T10:01:32Z</time>
</trkpt>
<trkpt lat="35.0650958" lon="32.6087427">
<ele>805.1</ele>
<time>2015-04-27T10:02:17Z</time>
</trkpt>
<trkpt lat="35.0652570" lon="32.6092522">
<ele>805.7</ele>
<time>2015-04-27T10:02:31Z</time>
</trkpt>
<trkpt lat="35.0661322" lon="32.6096994">
<ele>807.6</ele>
<time>2015-04-27T10:03:03Z</time>
</trkpt>
<trkpt lat="35.0664065" lon="32.6101612">
<ele>807.9</ele>
<time>2015-04-27T10:03:23Z</time>
</trkpt>
<trkpt lat="35.0662105" lon="32.6111394">
<ele>811.5</ele>
<time>2015-04-27T10:03:51Z</time>
</trkpt>
<trkpt lat="35.0664582" lon="32.6112386">
<ele>805.5</ele>
<time>2015-04-27T10:04:02Z</time>
</trkpt>
<trkpt lat="35.0667252" lon="32.6117987">
<ele>813.5</ele>
<time>2015-04-27T10:04:20Z</time>
</trkpt>
<trkpt lat="35.0671323" lon="32.6117675">
<ele>806.7</ele>
<time>2015-04-27T10:04:45Z</time>
</trkpt>
<trkpt lat="35.0672996" lon="32.6119277">
<ele>807.6</ele>
<time>2015-04-27T10:04:59Z</time>
</trkpt>
<trkpt lat="35.0669877" lon="32.6127585">
<ele>815.5</ele>
<time>2015-04-27T10:05:17Z</time>
</trkpt>
<trkpt lat="35.0669897" lon="32.6134177">
<ele>817.2</ele>
<time>2015-04-27T10:05:30Z</time>
</trkpt>
<trkpt lat="35.0677266" lon="32.6139644">
<ele>812.9</ele>
<time>2015-04-27T10:05:51Z</time>
</trkpt>
<trkpt lat="35.0681156" lon="32.6138948">
<ele>806.2</ele>
<time>2015-04-27T10:06:02Z</time>
</trkpt>
<trkpt lat="35.0681892" lon="32.6141030">
<ele>807.4</ele>
<time>2015-04-27T10:06:08Z</time>
</trkpt>
<trkpt lat="35.0678380" lon="32.6146828">
<ele>816.5</ele>
<time>2015-04-27T10:06:26Z</time>
</trkpt>
<trkpt lat="35.0678360" lon="32.6152860">
<ele>808.7</ele>
<time>2015-04-27T10:06:51Z</time>
</trkpt>
<trkpt lat="35.0670591" lon="32.6152133">
<ele>814.6</ele>
<time>2015-04-27T10:22:58Z</time>
</trkpt>
<trkpt lat="35.0669058" lon="32.6145503">
<ele>813.5</ele>
<time>2015-04-27T10:23:39Z</time>
</trkpt>
<trkpt lat="35.0662237" lon="32.6139383">
<ele>819.7</ele>
<time>2015-04-27T10:24:17Z</time>
</trkpt>
<trkpt lat="35.0660883" lon="32.6132798">
<ele>833.6</ele>
<time>2015-04-27T10:24:47Z</time>
</trkpt>
<trkpt lat="35.0652374" lon="32.6136704">
<ele>845.1</ele>
<time>2015-04-27T10:25:44Z</time>
</trkpt>
<trkpt lat="35.0643332" lon="32.6149088">
<ele>842.6</ele>
<time>2015-04-27T10:27:03Z</time>
</trkpt>
<trkpt lat="35.0635022" lon="32.6149605">
<ele>844.2</ele>
<time>2015-04-27T10:27:51Z</time>
</trkpt>
<trkpt lat="35.0631004" lon="32.6146550">
<ele>852.3</ele>
<time>2015-04-27T10:28:15Z</time>
</trkpt>
<trkpt lat="35.0627574" lon="32.6147160">
<ele>862.0</ele>
<time>2015-04-27T10:28:34Z</time>
</trkpt>
<trkpt lat="35.0629512" lon="32.6151244">
<ele>865.0</ele>
<time>2015-04-27T10:28:58Z</time>
</trkpt>
<trkpt lat="35.0629214" lon="32.6156686">
<ele>868.1</ele>
<time>2015-04-27T10:29:26Z</time>
</trkpt>
<trkpt lat="35.0635357" lon="32.6159019">
<ele>870.6</ele>
<time>2015-04-27T10:30:04Z</time>
</trkpt>
<trkpt lat="35.0637952" lon="32.6165758">
<ele>874.5</ele>
<time>2015-04-27T10:30:36Z</time>
</trkpt>
<trkpt lat="35.0643414" lon="32.6164787">
<ele>870.5</ele>
<time>2015-04-27T10:31:13Z</time>
</trkpt>
<trkpt lat="35.0644740" lon="32.6167087">
<ele>872.2</ele>
<time>2015-04-27T10:31:30Z</time>
</trkpt>
<trkpt lat="35.0640905" lon="32.6171916">
<ele>871.9</ele>
<time>2015-04-27T10:32:10Z</time>
</trkpt>
<trkpt lat="35.0633513" lon="32.6174530">
<ele>884.0</ele>
<time>2015-04-27T10:33:03Z</time>
</trkpt>
<trkpt lat="35.0628752" lon="32.6179243">
<ele>893.1</ele>
<time>2015-04-27T10:33:36Z</time>
</trkpt>
<trkpt lat="35.0629336" lon="32.6181409">
<ele>898.3</ele>
<time>2015-04-27T10:33:45Z</time>
</trkpt>
<trkpt lat="35.0634412" lon="32.6185633">
<ele>891.5</ele>
<time>2015-04-27T10:34:50Z</time>
</trkpt>
<trkpt lat="35.0629457" lon="32.6190042">
<ele>902.5</ele>
<time>2015-04-27T10:35:21Z</time>
</trkpt>
<trkpt lat="35.0623747" lon="32.6203775">
<ele>916.8</ele>
<time>2015-04-27T10:36:40Z</time>
</trkpt>
<trkpt lat="35.0631193" lon="32.6203522">
<ele>909.2</ele>
<time>2015-04-27T10:37:34Z</time>
</trkpt>
<trkpt lat="35.0638420" lon="32.6207758">
<ele>918.4</ele>
<time>2015-04-27T10:38:13Z</time>
</trkpt>
<trkpt lat="35.0645734" lon="32.6208291">
<ele>919.1</ele>
<time>2015-04-27T10:38:35Z</time>
</trkpt>
<trkpt lat="35.0649217" lon="32.6210992">
<ele>926.6</ele>
<time>2015-04-27T10:38:51Z</time>
</trkpt>
<trkpt lat="35.0653400" lon="32.6210559">
<ele>924.5</ele>
<time>2015-04-27T10:39:13Z</time>
</trkpt>
<trkpt lat="35.0657923" lon="32.6216405">
<ele>925.8</ele>
<time>2015-04-27T10:39:44Z</time>
</trkpt>
<trkpt lat="35.0655270" lon="32.6220112">
<ele>933.9</ele>
<time>2015-04-27T10:40:00Z</time>
</trkpt>
<trkpt lat="35.0654877" lon="32.6224624">
<ele>926.8</ele>
<time>2015-04-27T10:40:14Z</time>
</trkpt>
<trkpt lat="35.0643479" lon="32.6225808">
<ele>942.8</ele>
<time>2015-04-27T10:40:51Z</time>
</trkpt>
<trkpt lat="35.0641965" lon="32.6232918">
<ele>936.0</ele>
<time>2015-04-27T10:41:25Z</time>
</trkpt>
<trkpt lat="35.0634726" lon="32.6232892">
<ele>949.3</ele>
<time>2015-04-27T10:42:04Z</time>
</trkpt>
<trkpt lat="35.0630166" lon="32.6239857">
<ele>941.7</ele>
<time>2015-04-27T10:42:36Z</time>
</trkpt>
<trkpt lat="35.0615922" lon="32.6235964">
<ele>950.8</ele>
<time>2015-04-27T10:44:01Z</time>
</trkpt>
<trkpt lat="35.0607602" lon="32.6228208">
<ele>963.2</ele>
<time>2015-04-27T10:45:11Z</time>
</trkpt>
<trkpt lat="35.0602478" lon="32.6231177">
<ele>959.9</ele>
<time>2015-04-27T10:45:43Z</time>
</trkpt>
<trkpt lat="35.0599222" lon="32.6229522">
<ele>970.5</ele>
<time>2015-04-27T10:48:06Z</time>
</trkpt>
<trkpt lat="35.0590132" lon="32.6234741">
<ele>968.8</ele>
<time>2015-04-27T10:48:53Z</time>
</trkpt>
<trkpt lat="35.0588565" lon="32.6232632">
<ele>964.6</ele>
<time>2015-04-27T10:49:01Z</time>
</trkpt>
<trkpt lat="35.0588704" lon="32.6226859">
<ele>971.2</ele>
<time>2015-04-27T10:49:15Z</time>
</trkpt>
<trkpt lat="35.0583337" lon="32.6219364">
<ele>964.0</ele>
<time>2015-04-27T10:50:02Z</time>
</trkpt>
<trkpt lat="35.0581802" lon="32.6212472">
<ele>967.4</ele>
<time>2015-04-27T10:50:20Z</time>
</trkpt>
<trkpt lat="35.0574191" lon="32.6210101">
<ele>966.4</ele>
<time>2015-04-27T10:50:35Z</time>
</trkpt>
<trkpt lat="35.0569336" lon="32.6203137">
<ele>972.8</ele>
<time>2015-04-27T10:50:50Z</time>
</trkpt>
<trkpt lat="35.0565707" lon="32.6202069">
<ele>980.1</ele>
<time>2015-04-27T10:50:57Z</time>
</trkpt>
<trkpt lat="35.0558103" lon="32.6209098">
<ele>986.5</ele>
<time>2015-04-27T10:51:18Z</time>
</trkpt>
<trkpt lat="35.0541785" lon="32.6239562">
<ele>978.4</ele>
<time>2015-04-27T10:52:48Z</time>
</trkpt>
<trkpt lat="35.0533981" lon="32.6238980">
<ele>972.7</ele>
<time>2015-04-27T10:53:10Z</time>
</trkpt>
<trkpt lat="35.0528489" lon="32.6235715">
<ele>980.3</ele>
<time>2015-04-27T10:53:28Z</time>
</trkpt>
<trkpt lat="35.0523564" lon="32.6238183">
<ele>975.0</ele>
<time>2015-04-27T10:53:42Z</time>
</trkpt>
<trkpt lat="35.0513967" lon="32.6235006">
<ele>988.4</ele>
<time>2015-04-27T10:54:13Z</time>
</trkpt>
<trkpt lat="35.0511094" lon="32.6237632">
<ele>980.4</ele>
<time>2015-04-27T10:54:54Z</time>
</trkpt>
<trkpt lat="35.0505883" lon="32.6238621">
<ele>992.9</ele>
<time>2015-04-27T10:55:08Z</time>
</trkpt>
<trkpt lat="35.0505226" lon="32.6241227">
<ele>997.0</ele>
<time>2015-04-27T10:55:12Z</time>
</trkpt>
<trkpt lat="35.0507304" lon="32.6252320">
<ele>992.1</ele>
<time>2015-04-27T10:55:30Z</time>
</trkpt>
<trkpt lat="35.0502105" lon="32.6259504">
<ele>993.2</ele>
<time>2015-04-27T10:55:48Z</time>
</trkpt>
<trkpt lat="35.0498594" lon="32.6261871">
<ele>997.4</ele>
<time>2015-04-27T10:55:58Z</time>
</trkpt>
<trkpt lat="35.0497354" lon="32.6268324">
<ele>998.6</ele>
<time>2015-04-27T10:56:22Z</time>
</trkpt>
<trkpt lat="35.0484879" lon="32.6284385">
<ele>1005.1</ele>
<time>2015-04-27T10:57:50Z</time>
</trkpt>
<trkpt lat="35.0482343" lon="32.6285158">
<ele>996.4</ele>
<time>2015-04-27T10:58:07Z</time>
</trkpt>
<trkpt lat="35.0475362" lon="32.6277935">
<ele>1002.1</ele>
<time>2015-04-27T10:58:55Z</time>
</trkpt>
<trkpt lat="35.0468522" lon="32.6274819">
<ele>1018.4</ele>
<time>2015-04-27T10:59:34Z</time>
</trkpt>
<trkpt lat="35.0461607" lon="32.6281930">
<ele>1014.4</ele>
<time>2015-04-27T11:00:15Z</time>
</trkpt>
<trkpt lat="35.0455117" lon="32.6280349">
<ele>1021.9</ele>
<time>2015-04-27T11:00:43Z</time>
</trkpt>
<trkpt lat="35.0447512" lon="32.6284007">
<ele>1021.4</ele>
<time>2015-04-27T11:01:05Z</time>
</trkpt>
<trkpt lat="35.0434938" lon="32.6283872">
<ele>1030.2</ele>
<time>2015-04-27T11:01:43Z</time>
</trkpt>
<trkpt lat="35.0420899" lon="32.6294864">
<ele>1026.8</ele>
<time>2015-04-27T11:02:35Z</time>
</trkpt>
<trkpt lat="35.0416834" lon="32.6289828">
<ele>1031.3</ele>
<time>2015-04-27T11:03:04Z</time>
</trkpt>
<trkpt lat="35.0414087" lon="32.6289250">
<ele>1035.4</ele>
<time>2015-04-27T11:03:12Z</time>
</trkpt>
<trkpt lat="35.0394175" lon="32.6297745">
<ele>1043.4</ele>
<time>2015-04-27T11:04:48Z</time>
</trkpt>
<trkpt lat="35.0388328" lon="32.6306393">
<ele>1038.6</ele>
<time>2015-04-27T11:05:11Z</time>
</trkpt>
<trkpt lat="35.0382201" lon="32.6308384">
<ele>1035.9</ele>
<time>2015-04-27T11:05:25Z</time>
</trkpt>
<trkpt lat="35.0375382" lon="32.6306546">
<ele>1044.7</ele>
<time>2015-04-27T11:05:43Z</time>
</trkpt>
<trkpt lat="35.0369282" lon="32.6315397">
<ele>1043.8</ele>
<time>2015-04-27T11:06:01Z</time>
</trkpt>
<trkpt lat="35.0365102" lon="32.6317634">
<ele>1055.5</ele>
<time>2015-04-27T11:06:08Z</time>
</trkpt>
<trkpt lat="35.0363959" lon="32.6325342">
<ele>1034.6</ele>
<time>2015-04-27T11:06:17Z</time>
</trkpt>
<trkpt lat="35.0354036" lon="32.6325262">
<ele>1040.3</ele>
<time>2015-04-27T11:06:32Z</time>
</trkpt>
<trkpt lat="35.0351557" lon="32.6332314">
<ele>1029.8</ele>
<time>2015-04-27T11:06:41Z</time>
</trkpt>
<trkpt lat="35.0340358" lon="32.6336696">
<ele>1042.4</ele>
<time>2015-04-27T11:06:56Z</time>
</trkpt>
<trkpt lat="35.0338684" lon="32.6349521">
<ele>1028.1</ele>
<time>2015-04-27T11:07:13Z</time>
</trkpt>
<trkpt lat="35.0330483" lon="32.6350808">
<ele>1032.7</ele>
<time>2015-04-27T11:09:53Z</time>
</trkpt>
<trkpt lat="35.0331710" lon="32.6366375">
<ele>1047.8</ele>
<time>2015-04-27T11:21:46Z</time>
</trkpt>
<trkpt lat="35.0328971" lon="32.6376933">
<ele>1063.4</ele>
<time>2015-04-27T11:22:55Z</time>
</trkpt>
<trkpt lat="35.0332027" lon="32.6382510">
<ele>1063.8</ele>
<time>2015-04-27T11:23:44Z</time>
</trkpt>
<trkpt lat="35.0338066" lon="32.6382735">
<ele>1061.9</ele>
<time>2015-04-27T11:24:33Z</time>
</trkpt>
<trkpt lat="35.0344196" lon="32.6388334">
<ele>1079.4</ele>
<time>2015-04-27T11:25:29Z</time>
</trkpt>
<trkpt lat="35.0351305" lon="32.6389957">
<ele>1079.1</ele>
<time>2015-04-27T11:26:27Z</time>
</trkpt>
<trkpt lat="35.0354471" lon="32.6397196">
<ele>1080.2</ele>
<time>2015-04-27T11:27:15Z</time>
</trkpt>
<trkpt lat="35.0345908" lon="32.6405079">
<ele>1096.2</ele>
<time>2015-04-27T11:28:31Z</time>
</trkpt>
<trkpt lat="35.0344546" lon="32.6413472">
<ele>1100.5</ele>
<time>2015-04-27T11:29:16Z</time>
</trkpt>
<trkpt lat="35.0340125" lon="32.6424287">
<ele>1100.6</ele>
<time>2015-04-27T11:30:25Z</time>
</trkpt>
<trkpt lat="35.0331597" lon="32.6426367">
<ele>1117.0</ele>
<time>2015-04-27T11:31:31Z</time>
</trkpt>
<trkpt lat="35.0331454" lon="32.6434482">
<ele>1124.2</ele>
<time>2015-04-27T11:32:23Z</time>
</trkpt>
<trkpt lat="35.0327001" lon="32.6447992">
<ele>1135.6</ele>
<time>2015-04-27T11:33:58Z</time>
</trkpt>
<trkpt lat="35.0337023" lon="32.6459149">
<ele>1137.4</ele>
<time>2015-04-27T11:35:53Z</time>
</trkpt>
<trkpt lat="35.0331174" lon="32.6468103">
<ele>1147.2</ele>
<time>2015-04-27T11:42:00Z</time>
</trkpt>
<trkpt lat="35.0329038" lon="32.6482614">
<ele>1164.6</ele>
<time>2015-04-27T11:43:31Z</time>
</trkpt>
<trkpt lat="35.0336805" lon="32.6490094">
<ele>1165.3</ele>
<time>2015-04-27T11:44:52Z</time>
</trkpt>
<trkpt lat="35.0336276" lon="32.6499418">
<ele>1170.0</ele>
<time>2015-04-27T11:45:28Z</time>
</trkpt>
<trkpt lat="35.0333065" lon="32.6504853">
<ele>1178.3</ele>
<time>2015-04-27T11:45:59Z</time>
</trkpt>
<trkpt lat="35.0335206" lon="32.6511289">
<ele>1184.2</ele>
<time>2015-04-27T11:46:36Z</time>
</trkpt>
<trkpt lat="35.0343842" lon="32.6520438">
<ele>1180.1</ele>
<time>2015-04-27T11:48:21Z</time>
</trkpt>
<trkpt lat="35.0342603" lon="32.6523450">
<ele>1174.2</ele>
<time>2015-04-27T11:50:02Z</time>
</trkpt>
<trkpt lat="35.0332670" lon="32.6524754">
<ele>1169.1</ele>
<time>2015-04-27T11:51:08Z</time>
</trkpt>
<trkpt lat="35.0325196" lon="32.6520732">
<ele>1189.8</ele>
<time>2015-04-27T11:52:01Z</time>
</trkpt>
<trkpt lat="35.0320968" lon="32.6522726">
<ele>1182.8</ele>
<time>2015-04-27T11:52:41Z</time>
</trkpt>
<trkpt lat="35.0313295" lon="32.6521892">
<ele>1193.8</ele>
<time>2015-04-27T11:53:41Z</time>
</trkpt>
<trkpt lat="35.0294810" lon="32.6527495">
<ele>1212.6</ele>
<time>2015-04-27T11:57:30Z</time>
</trkpt>
<trkpt lat="35.0280044" lon="32.6539378">
<ele>1217.1</ele>
<time>2015-04-27T12:03:00Z</time>
</trkpt>
<trkpt lat="35.0280886" lon="32.6542106">
<ele>1223.2</ele>
<time>2015-04-27T12:05:11Z</time>
</trkpt>
<trkpt lat="35.0279180" lon="32.6549743">
<ele>1230.3</ele>
<time>2015-04-27T12:05:40Z</time>
</trkpt>
<trkpt lat="35.0268446" lon="32.6557076">
<ele>1233.7</ele>
<time>2015-04-27T12:06:28Z</time>
</trkpt>
<trkpt lat="35.0264935" lon="32.6561537">
<ele>1233.6</ele>
<time>2015-04-27T12:06:45Z</time>
</trkpt>
<trkpt lat="35.0262500" lon="32.6568956">
<ele>1232.3</ele>
<time>2015-04-27T12:07:05Z</time>
</trkpt>
<trkpt lat="35.0262658" lon="32.6577793">
<ele>1234.7</ele>
<time>2015-04-27T12:07:20Z</time>
</trkpt>
<trkpt lat="35.0260524" lon="32.6581970">
<ele>1241.2</ele>
<time>2015-04-27T12:07:27Z</time>
</trkpt>
<trkpt lat="35.0257670" lon="32.6582585">
<ele>1246.6</ele>
<time>2015-04-27T12:07:32Z</time>
</trkpt>
<trkpt lat="35.0248526" lon="32.6578982">
<ele>1239.2</ele>
<time>2015-04-27T12:07:52Z</time>
</trkpt>
<trkpt lat="35.0243028" lon="32.6589533">
<ele>1248.9</ele>
<time>2015-04-27T12:08:16Z</time>
</trkpt>
<trkpt lat="35.0234426" lon="32.6591378">
<ele>1248.5</ele>
<time>2015-04-27T12:08:48Z</time>
</trkpt>
<trkpt lat="35.0231779" lon="32.6596842">
<ele>1258.6</ele>
<time>2015-04-27T12:09:04Z</time>
</trkpt>
<trkpt lat="35.0214853" lon="32.6592586">
<ele>1245.2</ele>
<time>2015-04-27T12:09:53Z</time>
</trkpt>
<trkpt lat="35.0204228" lon="32.6595882">
<ele>1231.5</ele>
<time>2015-04-27T12:11:11Z</time>
</trkpt>
<trkpt lat="35.0171596" lon="32.6624301">
<ele>1214.5</ele>
<time>2015-04-27T12:11:48Z</time>
</trkpt>
<trkpt lat="35.0158684" lon="32.6618833">
<ele>1214.6</ele>
<time>2015-04-27T12:12:08Z</time>
</trkpt>
<trkpt lat="35.0154922" lon="32.6621486">
<ele>1209.1</ele>
<time>2015-04-27T12:12:14Z</time>
</trkpt>
<trkpt lat="35.0150111" lon="32.6630150">
<ele>1216.6</ele>
<time>2015-04-27T12:12:26Z</time>
</trkpt>
<trkpt lat="35.0142651" lon="32.6632046">
<ele>1220.7</ele>
<time>2015-04-27T12:12:35Z</time>
</trkpt>
<trkpt lat="35.0139659" lon="32.6629057">
<ele>1209.1</ele>
<time>2015-04-27T12:12:40Z</time>
</trkpt>
<trkpt lat="35.0137318" lon="32.6628951">
<ele>1203.8</ele>
<time>2015-04-27T12:12:43Z</time>
</trkpt>
<trkpt lat="35.0123268" lon="32.6635153">
<ele>1205.1</ele>
<time>2015-04-27T12:12:59Z</time>
</trkpt>
<trkpt lat="35.0108297" lon="32.6637282">
<ele>1171.9</ele>
<time>2015-04-27T12:13:16Z</time>
</trkpt>
<trkpt lat="35.0115052" lon="32.6644537">
<ele>1174.4</ele>
<time>2015-04-27T12:13:32Z</time>
</trkpt>
<trkpt lat="35.0111939" lon="32.6653334">
<ele>1173.9</ele>
<time>2015-04-27T12:13:43Z</time>
</trkpt>
<trkpt lat="35.0107733" lon="32.6659792">
<ele>1159.9</ele>
<time>2015-04-27T12:13:53Z</time>
</trkpt>
<trkpt lat="35.0112605" lon="32.6675014">
<ele>1161.1</ele>
<time>2015-04-27T12:14:11Z</time>
</trkpt>
<trkpt lat="35.0112470" lon="32.6688382">
<ele>1168.0</ele>
<time>2015-04-27T12:17:23Z</time>
</trkpt>
<trkpt lat="35.0114644" lon="32.6692944">
<ele>1165.3</ele>
<time>2015-04-27T12:17:34Z</time>
</trkpt>
<trkpt lat="35.0113052" lon="32.6700843">
<ele>1168.9</ele>
<time>2015-04-27T12:17:45Z</time>
</trkpt>
<trkpt lat="35.0116947" lon="32.6703335">
<ele>1163.5</ele>
<time>2015-04-27T12:17:52Z</time>
</trkpt>
<trkpt lat="35.0121989" lon="32.6711166">
<ele>1156.8</ele>
<time>2015-04-27T12:18:01Z</time>
</trkpt>
<trkpt lat="35.0122263" lon="32.6713626">
<ele>1151.4</ele>
<time>2015-04-27T12:18:04Z</time>
</trkpt>
<trkpt lat="35.0119477" lon="32.6719315">
<ele>1161.1</ele>
<time>2015-04-27T12:18:12Z</time>
</trkpt>
<trkpt lat="35.0122874" lon="32.6725211">
<ele>1149.7</ele>
<time>2015-04-27T12:18:21Z</time>
</trkpt>
<trkpt lat="35.0117950" lon="32.6731463">
<ele>1146.8</ele>
<time>2015-04-27T12:18:31Z</time>
</trkpt>
<trkpt lat="35.0109965" lon="32.6736886">
<ele>1155.4</ele>
<time>2015-04-27T12:18:44Z</time>
</trkpt>
<trkpt lat="35.0109611" lon="32.6741770">
<ele>1145.6</ele>
<time>2015-04-27T12:18:50Z</time>
</trkpt>
<trkpt lat="35.0105491" lon="32.6746352">
<ele>1156.7</ele>
<time>2015-04-27T12:19:00Z</time>
</trkpt>
<trkpt lat="35.0107126" lon="32.6749132">
<ele>1158.3</ele>
<time>2015-04-27T12:19:07Z</time>
</trkpt>
<trkpt lat="35.0115525" lon="32.6755082">
<ele>1151.3</ele>
<time>2015-04-27T12:19:22Z</time>
</trkpt>
<trkpt lat="35.0116108" lon="32.6761905">
<ele>1152.5</ele>
<time>2015-04-27T12:19:30Z</time>
</trkpt>
<trkpt lat="35.0113302" lon="32.6771386">
<ele>1162.0</ele>
<time>2015-04-27T12:19:42Z</time>
</trkpt>
<trkpt lat="35.0117132" lon="32.6779267">
<ele>1159.8</ele>
<time>2015-04-27T12:19:53Z</time>
</trkpt>
<trkpt lat="35.0120961" lon="32.6783468">
<ele>1153.1</ele>
<time>2015-04-27T12:20:01Z</time>
</trkpt>
<trkpt lat="35.0121550" lon="32.6790663">
<ele>1158.3</ele>
<time>2015-04-27T12:20:10Z</time>
</trkpt>
<trkpt lat="35.0126122" lon="32.6795899">
<ele>1140.6</ele>
<time>2015-04-27T12:21:20Z</time>
</trkpt>
<trkpt lat="35.0121932" lon="32.6801012">
<ele>1149.8</ele>
<time>2015-04-27T12:23:04Z</time>
</trkpt>
<trkpt lat="35.0120849" lon="32.6809658">
<ele>1140.2</ele>
<time>2015-04-27T12:23:23Z</time>
</trkpt>
<trkpt lat="35.0112791" lon="32.6814316">
<ele>1147.2</ele>
<time>2015-04-27T12:23:47Z</time>
</trkpt>
<trkpt lat="35.0107218" lon="32.6826171">
<ele>1141.9</ele>
<time>2015-04-27T12:24:12Z</time>
</trkpt>
<trkpt lat="35.0102591" lon="32.6830637">
<ele>1134.4</ele>
<time>2015-04-27T12:24:23Z</time>
</trkpt>
<trkpt lat="35.0091755" lon="32.6830123">
<ele>1136.1</ele>
<time>2015-04-27T12:24:47Z</time>
</trkpt>
<trkpt lat="35.0088679" lon="32.6831535">
<ele>1128.7</ele>
<time>2015-04-27T12:24:55Z</time>
</trkpt>
<trkpt lat="35.0084542" lon="32.6827578">
<ele>1130.6</ele>
<time>2015-04-27T12:25:15Z</time>
</trkpt>
<trkpt lat="35.0084082" lon="32.6817058">
<ele>1142.7</ele>
<time>2015-04-27T12:25:40Z</time>
</trkpt>
<trkpt lat="35.0076614" lon="32.6810998">
<ele>1149.6</ele>
<time>2015-04-27T12:26:19Z</time>
</trkpt>
<trkpt lat="35.0072198" lon="32.6812645">
<ele>1140.3</ele>
<time>2015-04-27T12:26:36Z</time>
</trkpt>
<trkpt lat="35.0064686" lon="32.6800684">
<ele>1159.1</ele>
<time>2015-04-27T12:27:22Z</time>
</trkpt>
<trkpt lat="35.0060152" lon="32.6809543">
<ele>1150.3</ele>
<time>2015-04-27T12:27:45Z</time>
</trkpt>
<trkpt lat="35.0056421" lon="32.6812639">
<ele>1161.4</ele>
<time>2015-04-27T12:27:54Z</time>
</trkpt>
<trkpt lat="35.0054507" lon="32.6819219">
<ele>1158.3</ele>
<time>2015-04-27T12:28:06Z</time>
</trkpt>
<trkpt lat="35.0050688" lon="32.6824365">
<ele>1146.2</ele>
<time>2015-04-27T12:28:16Z</time>
</trkpt>
<trkpt lat="35.0043444" lon="32.6825834">
<ele>1134.6</ele>
<time>2015-04-27T12:28:31Z</time>
</trkpt>
<trkpt lat="35.0040014" lon="32.6820769">
<ele>1135.1</ele>
<time>2015-04-27T12:28:45Z</time>
</trkpt>
<trkpt lat="35.0039574" lon="32.6817518">
<ele>1144.3</ele>
<time>2015-04-27T12:33:48Z</time>
</trkpt>
<trkpt lat="35.0035283" lon="32.6813180">
<ele>1155.7</ele>
<time>2015-04-27T12:34:01Z</time>
</trkpt>
<trkpt lat="35.0030846" lon="32.6833530">
<ele>1140.7</ele>
<time>2015-04-27T12:34:26Z</time>
</trkpt>
<trkpt lat="35.0017580" lon="32.6839808">
<ele>1153.0</ele>
<time>2015-04-27T12:34:46Z</time>
</trkpt>
<trkpt lat="35.0021820" lon="32.6851634">
<ele>1141.8</ele>
<time>2015-04-27T12:35:04Z</time>
</trkpt>
<trkpt lat="35.0020078" lon="32.6857346">
<ele>1150.5</ele>
<time>2015-04-27T12:35:12Z</time>
</trkpt>
<trkpt lat="35.0026292" lon="32.6864741">
<ele>1143.2</ele>
<time>2015-04-27T12:35:25Z</time>
</trkpt>
<trkpt lat="35.0026142" lon="32.6873338">
<ele>1146.7</ele>
<time>2015-04-27T12:35:35Z</time>
</trkpt>
<trkpt lat="35.0027430" lon="32.6876992">
<ele>1148.7</ele>
<time>2015-04-27T12:35:40Z</time>
</trkpt>
<trkpt lat="35.0034432" lon="32.6885226">
<ele>1139.8</ele>
<time>2015-04-27T12:35:54Z</time>
</trkpt>
<trkpt lat="35.0036678" lon="32.6893194">
<ele>1140.6</ele>
<time>2015-04-27T12:36:03Z</time>
</trkpt>
<trkpt lat="35.0042594" lon="32.6900172">
<ele>1133.8</ele>
<time>2015-04-27T12:36:15Z</time>
</trkpt>
<trkpt lat="35.0044668" lon="32.6907526">
<ele>1139.5</ele>
<time>2015-04-27T12:36:24Z</time>
</trkpt>
<trkpt lat="35.0061184" lon="32.6925147">
<ele>1126.5</ele>
<time>2015-04-27T12:36:58Z</time>
</trkpt>
<trkpt lat="35.0061010" lon="32.6929297">
<ele>1117.1</ele>
<time>2015-04-27T12:37:03Z</time>
</trkpt>
<trkpt lat="35.0053649" lon="32.6934754">
<ele>1104.2</ele>
<time>2015-04-27T12:37:16Z</time>
</trkpt>
<trkpt lat="35.0041906" lon="32.6928139">
<ele>1108.1</ele>
<time>2015-04-27T12:37:37Z</time>
</trkpt>
<trkpt lat="35.0032459" lon="32.6931696">
<ele>1110.1</ele>
<time>2015-04-27T12:37:51Z</time>
</trkpt>
<trkpt lat="35.0027289" lon="32.6938688">
<ele>1091.2</ele>
<time>2015-04-27T12:38:02Z</time>
</trkpt>
<trkpt lat="35.0020238" lon="32.6930863">
<ele>1092.8</ele>
<time>2015-04-27T12:38:19Z</time>
</trkpt>
<trkpt lat="35.0008901" lon="32.6925906">
<ele>1100.0</ele>
<time>2015-04-27T12:38:41Z</time>
</trkpt>
<trkpt lat="35.0004121" lon="32.6928022">
<ele>1109.5</ele>
<time>2015-04-27T12:38:51Z</time>
</trkpt>
<trkpt lat="34.9998534" lon="32.6936388">
<ele>1100.0</ele>
<time>2015-04-27T12:39:07Z</time>
</trkpt>
<trkpt lat="34.9995193" lon="32.6936721">
<ele>1096.3</ele>
<time>2015-04-27T12:39:12Z</time>
</trkpt>
<trkpt lat="34.9989345" lon="32.6932863">
<ele>1107.1</ele>
<time>2015-04-27T12:39:23Z</time>
</trkpt>
<trkpt lat="34.9980741" lon="32.6936520">
<ele>1110.9</ele>
<time>2015-04-27T12:39:38Z</time>
</trkpt>
<trkpt lat="34.9978873" lon="32.6939588">
<ele>1119.2</ele>
<time>2015-04-27T12:39:43Z</time>
</trkpt>
<trkpt lat="34.9980784" lon="32.6949334">
<ele>1112.0</ele>
<time>2015-04-27T12:39:55Z</time>
</trkpt>
<trkpt lat="34.9978277" lon="32.6958918">
<ele>1119.6</ele>
<time>2015-04-27T12:40:07Z</time>
</trkpt>
<trkpt lat="34.9980759" lon="32.6965235">
<ele>1113.4</ele>
<time>2015-04-27T12:40:15Z</time>
</trkpt>
<trkpt lat="34.9980634" lon="32.6968759">
<ele>1102.6</ele>
<time>2015-04-27T12:40:19Z</time>
</trkpt>
<trkpt lat="34.9968208" lon="32.6974935">
<ele>1104.7</ele>
<time>2015-04-27T12:40:41Z</time>
</trkpt>
<trkpt lat="34.9964946" lon="32.6977848">
<ele>1114.3</ele>
<time>2015-04-27T12:40:50Z</time>
</trkpt>
<trkpt lat="34.9964863" lon="32.6980442">
<ele>1118.3</ele>
<time>2015-04-27T12:40:54Z</time>
</trkpt>
<trkpt lat="34.9969640" lon="32.6987918">
<ele>1112.6</ele>
<time>2015-04-27T12:41:06Z</time>
</trkpt>
<trkpt lat="34.9969960" lon="32.6994453">
<ele>1114.0</ele>
<time>2015-04-27T12:41:14Z</time>
</trkpt>
<trkpt lat="34.9972477" lon="32.7002018">
<ele>1114.3</ele>
<time>2015-04-27T12:41:24Z</time>
</trkpt>
<trkpt lat="34.9979670" lon="32.7015956">
<ele>1102.1</ele>
<time>2015-04-27T12:41:42Z</time>
</trkpt>
<trkpt lat="34.9979804" lon="32.7032076">
<ele>1105.2</ele>
<time>2015-04-27T12:42:02Z</time>
</trkpt>
<trkpt lat="34.9986752" lon="32.7041048">
<ele>1103.1</ele>
<time>2015-04-27T12:42:16Z</time>
</trkpt>
<trkpt lat="34.9999452" lon="32.7042962">
<ele>1087.1</ele>
<time>2015-04-27T12:42:32Z</time>
</trkpt>
<trkpt lat="35.0002742" lon="32.7050273">
<ele>1095.0</ele>
<time>2015-04-27T12:42:41Z</time>
</trkpt>
<trkpt lat="35.0006859" lon="32.7051480">
<ele>1087.5</ele>
<time>2015-04-27T12:42:46Z</time>
</trkpt>
<trkpt lat="35.0013240" lon="32.7051197">
<ele>1081.4</ele>
<time>2015-04-27T12:42:53Z</time>
</trkpt>
<trkpt lat="35.0023062" lon="32.7040412">
<ele>1068.2</ele>
<time>2015-04-27T12:43:09Z</time>
</trkpt>
<trkpt lat="35.0038389" lon="32.7051122">
<ele>1068.7</ele>
<time>2015-04-27T12:43:30Z</time>
</trkpt>
<trkpt lat="35.0049958" lon="32.7051324">
<ele>1056.0</ele>
<time>2015-04-27T12:43:44Z</time>
</trkpt>
<trkpt lat="35.0058802" lon="32.7056265">
<ele>1050.3</ele>
<time>2015-04-27T12:43:57Z</time>
</trkpt>
<trkpt lat="35.0057943" lon="32.7059145">
<ele>1043.8</ele>
<time>2015-04-27T12:44:01Z</time>
</trkpt>
<trkpt lat="35.0043438" lon="32.7062451">
<ele>1045.9</ele>
<time>2015-04-27T12:44:29Z</time>
</trkpt>
<trkpt lat="35.0037052" lon="32.7066146">
<ele>1053.6</ele>
<time>2015-04-27T12:44:42Z</time>
</trkpt>
<trkpt lat="35.0032769" lon="32.7071815">
<ele>1054.7</ele>
<time>2015-04-27T12:44:54Z</time>
</trkpt>
<trkpt lat="35.0026458" lon="32.7085181">
<ele>1058.4</ele>
<time>2015-04-27T12:45:20Z</time>
</trkpt>
<trkpt lat="35.0027130" lon="32.7098962">
<ele>1062.9</ele>
<time>2015-04-27T12:45:38Z</time>
</trkpt>
<trkpt lat="35.0029126" lon="32.7105456">
<ele>1051.1</ele>
<time>2015-04-27T12:45:46Z</time>
</trkpt>
<trkpt lat="35.0027642" lon="32.7111948">
<ele>1054.9</ele>
<time>2015-04-27T12:45:54Z</time>
</trkpt>
<trkpt lat="35.0028356" lon="32.7124218">
<ele>1042.9</ele>
<time>2015-04-27T12:46:11Z</time>
</trkpt>
<trkpt lat="35.0027082" lon="32.7138632">
<ele>1036.1</ele>
<time>2015-04-27T12:46:38Z</time>
</trkpt>
<trkpt lat="35.0036408" lon="32.7149763">
<ele>1055.0</ele>
<time>2015-04-27T12:47:06Z</time>
</trkpt>
<trkpt lat="35.0049283" lon="32.7157991">
<ele>1040.1</ele>
<time>2015-04-27T12:47:44Z</time>
</trkpt>
<trkpt lat="35.0038129" lon="32.7167943">
<ele>1050.7</ele>
<time>2015-04-27T12:48:31Z</time>
</trkpt>
<trkpt lat="35.0036251" lon="32.7171367">
<ele>1056.4</ele>
<time>2015-04-27T12:48:43Z</time>
</trkpt>
<trkpt lat="35.0035308" lon="32.7179288">
<ele>1047.6</ele>
<time>2015-04-27T12:49:03Z</time>
</trkpt>
<trkpt lat="35.0028912" lon="32.7191309">
<ele>1061.0</ele>
<time>2015-04-27T12:49:35Z</time>
</trkpt>
<trkpt lat="35.0030180" lon="32.7198913">
<ele>1064.9</ele>
<time>2015-04-27T12:49:51Z</time>
</trkpt>
<trkpt lat="35.0034958" lon="32.7211708">
<ele>1059.6</ele>
<time>2015-04-27T12:50:18Z</time>
</trkpt>
<trkpt lat="35.0033253" lon="32.7226076">
<ele>1063.5</ele>
<time>2015-04-27T12:50:45Z</time>
</trkpt>
<trkpt lat="35.0034672" lon="32.7234229">
<ele>1068.4</ele>
<time>2015-04-27T12:51:00Z</time>
</trkpt>
<trkpt lat="35.0042724" lon="32.7241754">
<ele>1063.2</ele>
<time>2015-04-27T12:51:21Z</time>
</trkpt>
<trkpt lat="35.0046470" lon="32.7251089">
<ele>1064.1</ele>
<time>2015-04-27T12:51:34Z</time>
</trkpt>
<trkpt lat="35.0056992" lon="32.7263263">
<ele>1054.7</ele>
<time>2015-04-27T12:51:53Z</time>
</trkpt>
<trkpt lat="35.0064815" lon="32.7264986">
<ele>1045.4</ele>
<time>2015-04-27T12:52:03Z</time>
</trkpt>
<trkpt lat="35.0066719" lon="32.7271668">
<ele>1052.9</ele>
<time>2015-04-27T12:52:12Z</time>
</trkpt>
<trkpt lat="35.0075257" lon="32.7279784">
<ele>1048.2</ele>
<time>2015-04-27T12:52:27Z</time>
</trkpt>
<trkpt lat="35.0082079" lon="32.7279947">
<ele>1042.6</ele>
<time>2015-04-27T12:52:36Z</time>
</trkpt>
<trkpt lat="35.0087506" lon="32.7282150">
<ele>1041.9</ele>
<time>2015-04-27T12:52:43Z</time>
</trkpt>
<trkpt lat="35.0095441" lon="32.7281184">
<ele>1036.7</ele>
<time>2015-04-27T12:52:53Z</time>
</trkpt>
<trkpt lat="35.0101362" lon="32.7278111">
<ele>1032.9</ele>
<time>2015-04-27T12:53:01Z</time>
</trkpt>
<trkpt lat="35.0109383" lon="32.7266760">
<ele>1021.0</ele>
<time>2015-04-27T12:53:15Z</time>
</trkpt>
<trkpt lat="35.0123594" lon="32.7276674">
<ele>1024.9</ele>
<time>2015-04-27T12:53:34Z</time>
</trkpt>
<trkpt lat="35.0135874" lon="32.7274571">
<ele>1018.8</ele>
<time>2015-04-27T12:53:53Z</time>
</trkpt>
<trkpt lat="35.0136004" lon="32.7282641">
<ele>1019.5</ele>
<time>2015-04-27T12:56:16Z</time>
</trkpt>
<trkpt lat="35.0132108" lon="32.7287085">
<ele>1010.5</ele>
<time>2015-04-27T12:56:25Z</time>
</trkpt>
<trkpt lat="35.0124924" lon="32.7286451">
<ele>1011.6</ele>
<time>2015-04-27T12:56:35Z</time>
</trkpt>
<trkpt lat="35.0114024" lon="32.7290184">
<ele>1006.7</ele>
<time>2015-04-27T12:56:49Z</time>
</trkpt>
<trkpt lat="35.0112630" lon="32.7297804">
<ele>996.4</ele>
<time>2015-04-27T12:56:57Z</time>
</trkpt>
<trkpt lat="35.0106575" lon="32.7311701">
<ele>974.2</ele>
<time>2015-04-27T12:57:15Z</time>
</trkpt>
<trkpt lat="35.0094112" lon="32.7308364">
<ele>957.7</ele>
<time>2015-04-27T12:57:38Z</time>
</trkpt>
<trkpt lat="35.0090060" lon="32.7302382">
<ele>962.9</ele>
<time>2015-04-27T12:57:49Z</time>
</trkpt>
<trkpt lat="35.0084728" lon="32.7304625">
<ele>962.6</ele>
<time>2015-04-27T12:58:07Z</time>
</trkpt>
<trkpt lat="35.0066611" lon="32.7302047">
<ele>978.8</ele>
<time>2015-04-27T12:59:24Z</time>
</trkpt>
<trkpt lat="35.0065301" lon="32.7304934">
<ele>987.3</ele>
<time>2015-04-27T12:59:32Z</time>
</trkpt>
<trkpt lat="35.0066527" lon="32.7318646">
<ele>983.1</ele>
<time>2015-04-27T13:00:14Z</time>
</trkpt>
<trkpt lat="35.0062012" lon="32.7328346">
<ele>983.5</ele>
<time>2015-04-27T13:00:57Z</time>
</trkpt>
<trkpt lat="35.0059485" lon="32.7328591">
<ele>977.1</ele>
<time>2015-04-27T13:01:11Z</time>
</trkpt>
<trkpt lat="35.0052763" lon="32.7321080">
<ele>991.2</ele>
<time>2015-04-27T13:02:24Z</time>
</trkpt>
<trkpt lat="35.0050850" lon="32.7321087">
<ele>994.1</ele>
<time>2015-04-27T13:14:52Z</time>
</trkpt>
<trkpt lat="35.0039587" lon="32.7330552">
<ele>1001.1</ele>
<time>2015-04-27T13:16:47Z</time>
</trkpt>
<trkpt lat="35.0034210" lon="32.7331442">
<ele>1002.6</ele>
<time>2015-04-27T13:17:38Z</time>
</trkpt>
<trkpt lat="35.0025235" lon="32.7329027">
<ele>1021.0</ele>
<time>2015-04-27T13:19:06Z</time>
</trkpt>
<trkpt lat="35.0016634" lon="32.7335899">
<ele>1018.9</ele>
<time>2015-04-27T13:20:32Z</time>
</trkpt>
<trkpt lat="35.0008761" lon="32.7336962">
<ele>1035.6</ele>
<time>2015-04-27T13:21:28Z</time>
</trkpt>
<trkpt lat="35.0006862" lon="32.7340635">
<ele>1047.3</ele>
<time>2015-04-27T13:21:53Z</time>
</trkpt>
<trkpt lat="35.0007967" lon="32.7346007">
<ele>1040.8</ele>
<time>2015-04-27T13:22:34Z</time>
</trkpt>
<trkpt lat="35.0003022" lon="32.7351922">
<ele>1050.7</ele>
<time>2015-04-27T13:23:39Z</time>
</trkpt>
<trkpt lat="35.0001711" lon="32.7357420">
<ele>1048.4</ele>
<time>2015-04-27T13:24:21Z</time>
</trkpt>
<trkpt lat="34.9999346" lon="32.7359564">
<ele>1047.6</ele>
<time>2015-04-27T13:24:47Z</time>
</trkpt>
<trkpt lat="34.9996440" lon="32.7358892">
<ele>1047.4</ele>
<time>2015-04-27T13:25:09Z</time>
</trkpt>
<trkpt lat="34.9984987" lon="32.7345942">
<ele>1064.0</ele>
<time>2015-04-27T13:27:06Z</time>
</trkpt>
<trkpt lat="34.9981336" lon="32.7346044">
<ele>1067.3</ele>
<time>2015-04-27T13:27:24Z</time>
</trkpt>
<trkpt lat="34.9975288" lon="32.7349257">
<ele>1073.9</ele>
<time>2015-04-27T13:27:48Z</time>
</trkpt>
<trkpt lat="34.9968674" lon="32.7358584">
<ele>1068.6</ele>
<time>2015-04-27T13:28:47Z</time>
</trkpt>
<trkpt lat="34.9959716" lon="32.7350753">
<ele>1084.7</ele>
<time>2015-04-27T13:30:01Z</time>
</trkpt>
<trkpt lat="34.9956598" lon="32.7351024">
<ele>1090.9</ele>
<time>2015-04-27T13:30:20Z</time>
</trkpt>
<trkpt lat="34.9947506" lon="32.7360486">
<ele>1095.3</ele>
<time>2015-04-27T13:31:36Z</time>
</trkpt>
<trkpt lat="34.9938552" lon="32.7362152">
<ele>1106.9</ele>
<time>2015-04-27T13:32:34Z</time>
</trkpt>
<trkpt lat="34.9932442" lon="32.7375829">
<ele>1109.0</ele>
<time>2015-04-27T13:33:33Z</time>
</trkpt>
<trkpt lat="34.9929637" lon="32.7379001">
<ele>1102.3</ele>
<time>2015-04-27T13:33:51Z</time>
</trkpt>
<trkpt lat="34.9916637" lon="32.7375346">
<ele>1106.9</ele>
<time>2015-04-27T13:43:15Z</time>
</trkpt>
<trkpt lat="34.9894540" lon="32.7386874">
<ele>1113.0</ele>
<time>2015-04-27T13:44:20Z</time>
</trkpt>
<trkpt lat="34.9879570" lon="32.7399130">
<ele>1112.3</ele>
<time>2015-04-27T13:45:02Z</time>
</trkpt>
<trkpt lat="34.9873477" lon="32.7407214">
<ele>1118.3</ele>
<time>2015-04-27T13:45:20Z</time>
</trkpt>
<trkpt lat="34.9865370" lon="32.7434948">
<ele>1121.0</ele>
<time>2015-04-27T13:46:09Z</time>
</trkpt>
<trkpt lat="34.9857776" lon="32.7440569">
<ele>1117.7</ele>
<time>2015-04-27T13:46:35Z</time>
</trkpt>
<trkpt lat="34.9854118" lon="32.7441179">
<ele>1117.1</ele>
<time>2015-04-27T13:46:45Z</time>
</trkpt>
<trkpt lat="34.9852537" lon="32.7439642">
<ele>1112.8</ele>
<time>2015-04-27T13:46:51Z</time>
</trkpt>
<trkpt lat="34.9850811" lon="32.7433577">
<ele>1117.4</ele>
<time>2015-04-27T13:47:07Z</time>
</trkpt>
<trkpt lat="34.9845982" lon="32.7426805">
<ele>1114.7</ele>
<time>2015-04-27T13:47:31Z</time>
</trkpt>
<trkpt lat="34.9845217" lon="32.7416847">
<ele>1123.8</ele>
<time>2015-04-27T13:48:09Z</time>
</trkpt>
<trkpt lat="34.9843204" lon="32.7414982">
<ele>1126.2</ele>
<time>2015-04-27T13:48:27Z</time>
</trkpt>
<trkpt lat="34.9839292" lon="32.7415653">
<ele>1130.2</ele>
<time>2015-04-27T13:48:52Z</time>
</trkpt>
<trkpt lat="34.9839306" lon="32.7414545">
<ele>1131.8</ele>
<time>2015-04-27T13:54:44Z</time>
</trkpt>
<trkpt lat="34.9832468" lon="32.7423902">
<ele>1133.5</ele>
<time>2015-04-27T13:55:55Z</time>
</trkpt>
<trkpt lat="34.9828249" lon="32.7434199">
<ele>1131.9</ele>
<time>2015-04-27T13:56:45Z</time>
</trkpt>
<trkpt lat="34.9823788" lon="32.7431834">
<ele>1127.2</ele>
<time>2015-04-27T13:57:22Z</time>
</trkpt>
<trkpt lat="34.9818696" lon="32.7423598">
<ele>1121.3</ele>
<time>2015-04-27T13:57:49Z</time>
</trkpt>
<trkpt lat="34.9810700" lon="32.7421055">
<ele>1115.2</ele>
<time>2015-04-27T13:58:14Z</time>
</trkpt>
<trkpt lat="34.9793135" lon="32.7423315">
<ele>1101.4</ele>
<time>2015-04-27T13:58:38Z</time>
</trkpt>
<trkpt lat="34.9785867" lon="32.7427848">
<ele>1090.5</ele>
<time>2015-04-27T13:58:51Z</time>
</trkpt>
<trkpt lat="34.9780099" lon="32.7428755">
<ele>1088.3</ele>
<time>2015-04-27T13:59:02Z</time>
</trkpt>
<trkpt lat="34.9788046" lon="32.7430762">
<ele>1082.2</ele>
<time>2015-04-27T13:59:32Z</time>
</trkpt>
<trkpt lat="34.9798832" lon="32.7427786">
<ele>1086.0</ele>
<time>2015-04-27T13:59:48Z</time>
</trkpt>
<trkpt lat="34.9810311" lon="32.7430088">
<ele>1073.5</ele>
<time>2015-04-27T14:00:00Z</time>
</trkpt>
<trkpt lat="34.9813894" lon="32.7432851">
<ele>1069.1</ele>
<time>2015-04-27T14:00:05Z</time>
</trkpt>
<trkpt lat="34.9814792" lon="32.7442600">
<ele>1069.7</ele>
<time>2015-04-27T14:00:15Z</time>
</trkpt>
<trkpt lat="34.9810943" lon="32.7451215">
<ele>1068.6</ele>
<time>2015-04-27T14:00:24Z</time>
</trkpt>
<trkpt lat="34.9798941" lon="32.7463118">
<ele>1053.0</ele>
<time>2015-04-27T14:00:40Z</time>
</trkpt>
<trkpt lat="34.9795283" lon="32.7479252">
<ele>1042.9</ele>
<time>2015-04-27T14:00:54Z</time>
</trkpt>
<trkpt lat="34.9796487" lon="32.7481752">
<ele>1043.3</ele>
<time>2015-04-27T14:00:57Z</time>
</trkpt>
<trkpt lat="34.9800344" lon="32.7481688">
<ele>1045.3</ele>
<time>2015-04-27T14:01:02Z</time>
</trkpt>
<trkpt lat="34.9807203" lon="32.7468815">
<ele>1046.5</ele>
<time>2015-04-27T14:01:17Z</time>
</trkpt>
<trkpt lat="34.9810694" lon="32.7466806">
<ele>1039.7</ele>
<time>2015-04-27T14:01:22Z</time>
</trkpt>
<trkpt lat="34.9812409" lon="32.7468067">
<ele>1034.5</ele>
<time>2015-04-27T14:01:25Z</time>
</trkpt>
<trkpt lat="34.9818747" lon="32.7485184">
<ele>1024.5</ele>
<time>2015-04-27T14:01:43Z</time>
</trkpt>
<trkpt lat="34.9834552" lon="32.7492858">
<ele>1019.2</ele>
<time>2015-04-27T14:02:02Z</time>
</trkpt>
<trkpt lat="34.9841864" lon="32.7490512">
<ele>1015.0</ele>
<time>2015-04-27T14:02:11Z</time>
</trkpt>
<trkpt lat="34.9848818" lon="32.7493665">
<ele>1008.0</ele>
<time>2015-04-27T14:02:20Z</time>
</trkpt>
<trkpt lat="34.9851593" lon="32.7490311">
<ele>1010.3</ele>
<time>2015-04-27T14:02:25Z</time>
</trkpt>
<trkpt lat="34.9853065" lon="32.7473961">
<ele>1008.9</ele>
<time>2015-04-27T14:02:40Z</time>
</trkpt>
<trkpt lat="34.9852082" lon="32.7468391">
<ele>1007.9</ele>
<time>2015-04-27T14:02:46Z</time>
</trkpt>
<trkpt lat="34.9854363" lon="32.7467537">
<ele>999.0</ele>
<time>2015-04-27T14:02:51Z</time>
</trkpt>
<trkpt lat="34.9859029" lon="32.7471853">
<ele>988.2</ele>
<time>2015-04-27T14:02:59Z</time>
</trkpt>
<trkpt lat="34.9863267" lon="32.7499014">
<ele>969.9</ele>
<time>2015-04-27T14:03:21Z</time>
</trkpt>
<trkpt lat="34.9861514" lon="32.7505604">
<ele>966.4</ele>
<time>2015-04-27T14:03:29Z</time>
</trkpt>
<trkpt lat="34.9852244" lon="32.7523530">
<ele>974.5</ele>
<time>2015-04-27T14:03:59Z</time>
</trkpt>
<trkpt lat="34.9842851" lon="32.7525246">
<ele>978.4</ele>
<time>2015-04-27T14:04:31Z</time>
</trkpt>
<trkpt lat="34.9826358" lon="32.7533172">
<ele>986.0</ele>
<time>2015-04-27T14:05:16Z</time>
</trkpt>
<trkpt lat="34.9808944" lon="32.7546123">
<ele>991.4</ele>
<time>2015-04-27T14:06:46Z</time>
</trkpt>
<trkpt lat="34.9806900" lon="32.7550813">
<ele>1002.0</ele>
<time>2015-04-27T14:07:06Z</time>
</trkpt>
<trkpt lat="34.9807401" lon="32.7557915">
<ele>1004.1</ele>
<time>2015-04-27T14:07:35Z</time>
</trkpt>
<trkpt lat="34.9803136" lon="32.7575537">
<ele>1010.8</ele>
<time>2015-04-27T14:08:47Z</time>
</trkpt>
<trkpt lat="34.9801769" lon="32.7590953">
<ele>1014.5</ele>
<time>2015-04-27T14:09:47Z</time>
</trkpt>
<trkpt lat="34.9804801" lon="32.7598231">
<ele>1019.2</ele>
<time>2015-04-27T14:10:22Z</time>
</trkpt>
<trkpt lat="34.9811450" lon="32.7603504">
<ele>1016.3</ele>
<time>2015-04-27T14:11:01Z</time>
</trkpt>
<trkpt lat="34.9822476" lon="32.7625834">
<ele>1009.4</ele>
<time>2015-04-27T14:12:22Z</time>
</trkpt>
<trkpt lat="34.9821378" lon="32.7627230">
<ele>1005.3</ele>
<time>2015-04-27T14:12:32Z</time>
</trkpt>
<trkpt lat="34.9811285" lon="32.7627086">
<ele>996.1</ele>
<time>2015-04-27T14:15:06Z</time>
</trkpt>
<trkpt lat="34.9806241" lon="32.7615637">
<ele>993.5</ele>
<time>2015-04-27T14:15:19Z</time>
</trkpt>
<trkpt lat="34.9801366" lon="32.7613237">
<ele>995.5</ele>
<time>2015-04-27T14:15:25Z</time>
</trkpt>
<trkpt lat="34.9798113" lon="32.7615450">
<ele>1001.5</ele>
<time>2015-04-27T14:15:29Z</time>
</trkpt>
<trkpt lat="34.9792358" lon="32.7626130">
<ele>987.4</ele>
<time>2015-04-27T14:15:40Z</time>
</trkpt>
<trkpt lat="34.9785493" lon="32.7630299">
<ele>1004.7</ele>
<time>2015-04-27T14:15:48Z</time>
</trkpt>
<trkpt lat="34.9792806" lon="32.7639450">
<ele>986.5</ele>
<time>2015-04-27T14:16:00Z</time>
</trkpt>
<trkpt lat="34.9788162" lon="32.7657056">
<ele>989.1</ele>
<time>2015-04-27T14:16:18Z</time>
</trkpt>
<trkpt lat="34.9788771" lon="32.7664011">
<ele>984.8</ele>
<time>2015-04-27T14:16:24Z</time>
</trkpt>
<trkpt lat="34.9791897" lon="32.7667965">
<ele>981.3</ele>
<time>2015-04-27T14:16:29Z</time>
</trkpt>
<trkpt lat="34.9793155" lon="32.7674589">
<ele>970.7</ele>
<time>2015-04-27T14:16:35Z</time>
</trkpt>
<trkpt lat="34.9789924" lon="32.7684086">
<ele>976.5</ele>
<time>2015-04-27T14:16:43Z</time>
</trkpt>
<trkpt lat="34.9788505" lon="32.7694110">
<ele>965.7</ele>
<time>2015-04-27T14:16:51Z</time>
</trkpt>
<trkpt lat="34.9789461" lon="32.7704007">
<ele>960.5</ele>
<time>2015-04-27T14:16:59Z</time>
</trkpt>
<trkpt lat="34.9787922" lon="32.7711042">
<ele>960.7</ele>
<time>2015-04-27T14:17:05Z</time>
</trkpt>
<trkpt lat="34.9790423" lon="32.7724413">
<ele>947.6</ele>
<time>2015-04-27T14:17:16Z</time>
</trkpt>
<trkpt lat="34.9787330" lon="32.7740430">
<ele>944.9</ele>
<time>2015-04-27T14:17:30Z</time>
</trkpt>
<trkpt lat="34.9789311" lon="32.7747553">
<ele>935.7</ele>
<time>2015-04-27T14:17:36Z</time>
</trkpt>
<trkpt lat="34.9778997" lon="32.7761888">
<ele>935.6</ele>
<time>2015-04-27T14:17:55Z</time>
</trkpt>
<trkpt lat="34.9784979" lon="32.7767481">
<ele>933.0</ele>
<time>2015-04-27T14:18:04Z</time>
</trkpt>
<trkpt lat="34.9787507" lon="32.7776276">
<ele>923.4</ele>
<time>2015-04-27T14:18:17Z</time>
</trkpt>
<trkpt lat="34.9790677" lon="32.7779571">
<ele>919.2</ele>
<time>2015-04-27T14:18:24Z</time>
</trkpt>
<trkpt lat="34.9793235" lon="32.7794940">
<ele>918.3</ele>
<time>2015-04-27T14:18:43Z</time>
</trkpt>
<trkpt lat="34.9793456" lon="32.7812832">
<ele>925.3</ele>
<time>2015-04-27T14:19:29Z</time>
</trkpt>
<trkpt lat="34.9799806" lon="32.7812303">
<ele>924.9</ele>
<time>2015-04-27T14:20:01Z</time>
</trkpt>
<trkpt lat="34.9801368" lon="32.7816895">
<ele>937.0</ele>
<time>2015-04-27T14:20:22Z</time>
</trkpt>
<trkpt lat="34.9804708" lon="32.7819350">
<ele>938.0</ele>
<time>2015-04-27T14:20:38Z</time>
</trkpt>
<trkpt lat="34.9809456" lon="32.7827128">
<ele>936.6</ele>
<time>2015-04-27T14:21:12Z</time>
</trkpt>
<trkpt lat="34.9811261" lon="32.7835062">
<ele>931.8</ele>
<time>2015-04-27T14:21:54Z</time>
</trkpt>
<trkpt lat="34.9824136" lon="32.7842826">
<ele>935.2</ele>
<time>2015-04-27T14:23:07Z</time>
</trkpt>
<trkpt lat="34.9831096" lon="32.7851322">
<ele>940.9</ele>
<time>2015-04-27T14:23:52Z</time>
</trkpt>
<trkpt lat="34.9830539" lon="32.7854857">
<ele>947.0</ele>
<time>2015-04-27T14:24:04Z</time>
</trkpt>
<trkpt lat="34.9823690" lon="32.7863562">
<ele>945.6</ele>
<time>2015-04-27T14:24:52Z</time>
</trkpt>
<trkpt lat="34.9824278" lon="32.7869747">
<ele>945.9</ele>
<time>2015-04-27T14:25:16Z</time>
</trkpt>
<trkpt lat="34.9827376" lon="32.7870276">
<ele>947.9</ele>
<time>2015-04-27T14:25:35Z</time>
</trkpt>
<trkpt lat="34.9834053" lon="32.7866290">
<ele>956.2</ele>
<time>2015-04-27T14:26:14Z</time>
</trkpt>
<trkpt lat="34.9837442" lon="32.7860508">
<ele>963.4</ele>
<time>2015-04-27T14:26:51Z</time>
</trkpt>
<trkpt lat="34.9846001" lon="32.7858820">
<ele>963.0</ele>
<time>2015-04-27T14:27:37Z</time>
</trkpt>
<trkpt lat="34.9850664" lon="32.7860682">
<ele>962.8</ele>
<time>2015-04-27T14:28:00Z</time>
</trkpt>
<trkpt lat="34.9853479" lon="32.7869060">
<ele>964.7</ele>
<time>2015-04-27T14:28:46Z</time>
</trkpt>
<trkpt lat="34.9860038" lon="32.7869089">
<ele>974.2</ele>
<time>2015-04-27T14:29:48Z</time>
</trkpt>
<trkpt lat="34.9864438" lon="32.7873874">
<ele>975.2</ele>
<time>2015-04-27T14:30:29Z</time>
</trkpt>
<trkpt lat="34.9867613" lon="32.7870536">
<ele>986.5</ele>
<time>2015-04-27T14:30:55Z</time>
</trkpt>
<trkpt lat="34.9870459" lon="32.7870103">
<ele>986.2</ele>
<time>2015-04-27T14:31:06Z</time>
</trkpt>
<trkpt lat="34.9887125" lon="32.7884379">
<ele>990.1</ele>
<time>2015-04-27T14:32:46Z</time>
</trkpt>
<trkpt lat="34.9895963" lon="32.7884871">
<ele>996.2</ele>
<time>2015-04-27T14:33:27Z</time>
</trkpt>
<trkpt lat="34.9904320" lon="32.7890144">
<ele>996.5</ele>
<time>2015-04-27T14:34:06Z</time>
</trkpt>
<trkpt lat="34.9903543" lon="32.7893686">
<ele>999.9</ele>
<time>2015-04-27T14:34:23Z</time>
</trkpt>
<trkpt lat="34.9893770" lon="32.7898236">
<ele>1002.4</ele>
<time>2015-04-27T14:35:09Z</time>
</trkpt>
<trkpt lat="34.9890426" lon="32.7907723">
<ele>1006.8</ele>
<time>2015-04-27T14:35:51Z</time>
</trkpt>
<trkpt lat="34.9887346" lon="32.7908621">
<ele>1013.0</ele>
<time>2015-04-27T14:36:05Z</time>
</trkpt>
<trkpt lat="34.9882392" lon="32.7905634">
<ele>1009.3</ele>
<time>2015-04-27T14:36:26Z</time>
</trkpt>
<trkpt lat="34.9879648" lon="32.7907349">
<ele>1004.8</ele>
<time>2015-04-27T14:40:32Z</time>
</trkpt>
<trkpt lat="34.9878353" lon="32.7910791">
<ele>998.8</ele>
<time>2015-04-27T14:40:55Z</time>
</trkpt>
<trkpt lat="34.9881888" lon="32.7924883">
<ele>1004.3</ele>
<time>2015-04-27T14:41:53Z</time>
</trkpt>
<trkpt lat="34.9887740" lon="32.7930556">
<ele>1007.8</ele>
<time>2015-04-27T14:42:17Z</time>
</trkpt>
<trkpt lat="34.9890275" lon="32.7940407">
<ele>1010.2</ele>
<time>2015-04-27T14:42:41Z</time>
</trkpt>
<trkpt lat="34.9893402" lon="32.7944752">
<ele>1011.7</ele>
<time>2015-04-27T14:42:57Z</time>
</trkpt>
<trkpt lat="34.9892845" lon="32.7952636">
<ele>1009.0</ele>
<time>2015-04-27T14:43:17Z</time>
</trkpt>
<trkpt lat="34.9899077" lon="32.7967118">
<ele>1021.3</ele>
<time>2015-04-27T14:44:02Z</time>
</trkpt>
<trkpt lat="34.9890393" lon="32.7975948">
<ele>1030.7</ele>
<time>2015-04-27T14:44:42Z</time>
</trkpt>
<trkpt lat="34.9885094" lon="32.7969695">
<ele>1028.0</ele>
<time>2015-04-27T14:45:12Z</time>
</trkpt>
<trkpt lat="34.9877753" lon="32.7971861">
<ele>1038.2</ele>
<time>2015-04-27T14:45:41Z</time>
</trkpt>
<trkpt lat="34.9873122" lon="32.7968448">
<ele>1037.0</ele>
<time>2015-04-27T14:46:10Z</time>
</trkpt>
<trkpt lat="34.9868864" lon="32.7969578">
<ele>1043.0</ele>
<time>2015-04-27T14:46:35Z</time>
</trkpt>
<trkpt lat="34.9858296" lon="32.7958818">
<ele>1042.0</ele>
<time>2015-04-27T14:47:58Z</time>
</trkpt>
<trkpt lat="34.9855157" lon="32.7959453">
<ele>1035.7</ele>
<time>2015-04-27T14:48:45Z</time>
</trkpt>
<trkpt lat="34.9856306" lon="32.7963138">
<ele>1036.8</ele>
<time>2015-04-27T14:49:06Z</time>
</trkpt>
<trkpt lat="34.9866435" lon="32.7972991">
<ele>1045.5</ele>
<time>2015-04-27T14:50:14Z</time>
</trkpt>
<trkpt lat="34.9870751" lon="32.7984256">
<ele>1050.6</ele>
<time>2015-04-27T14:51:09Z</time>
</trkpt>
<trkpt lat="34.9883058" lon="32.7992944">
<ele>1059.3</ele>
<time>2015-04-27T14:52:17Z</time>
</trkpt>
<trkpt lat="34.9889221" lon="32.8000857">
<ele>1064.6</ele>
<time>2015-04-27T14:53:04Z</time>
</trkpt>
<trkpt lat="34.9889723" lon="32.8004264">
<ele>1068.6</ele>
<time>2015-04-27T14:53:20Z</time>
</trkpt>
<trkpt lat="34.9887578" lon="32.8010033">
<ele>1067.4</ele>
<time>2015-04-27T14:53:50Z</time>
</trkpt>
<trkpt lat="34.9888517" lon="32.8015939">
<ele>1076.3</ele>
<time>2015-04-27T14:54:16Z</time>
</trkpt>
<trkpt lat="34.9884011" lon="32.8019307">
<ele>1080.1</ele>
<time>2015-04-27T14:54:34Z</time>
</trkpt>
<trkpt lat="34.9878184" lon="32.8030508">
<ele>1087.1</ele>
<time>2015-04-27T14:55:36Z</time>
</trkpt>
<trkpt lat="34.9869502" lon="32.8035963">
<ele>1097.5</ele>
<time>2015-04-27T14:56:28Z</time>
</trkpt>
<trkpt lat="34.9863846" lon="32.8036556">
<ele>1087.0</ele>
<time>2015-04-27T14:56:58Z</time>
</trkpt>
<trkpt lat="34.9859207" lon="32.8048120">
<ele>1093.5</ele>
<time>2015-04-27T15:11:11Z</time>
</trkpt>
<trkpt lat="34.9830654" lon="32.8073252">
<ele>1091.9</ele>
<time>2015-04-27T15:12:35Z</time>
</trkpt>
<trkpt lat="34.9819972" lon="32.8087471">
<ele>1095.4</ele>
<time>2015-04-27T15:13:25Z</time>
</trkpt>
<trkpt lat="34.9812493" lon="32.8089023">
<ele>1092.9</ele>
<time>2015-04-27T15:13:47Z</time>
</trkpt>
<trkpt lat="34.9804922" lon="32.8094468">
<ele>1084.6</ele>
<time>2015-04-27T15:14:13Z</time>
</trkpt>
<trkpt lat="34.9794615" lon="32.8096603">
<ele>1082.2</ele>
<time>2015-04-27T15:14:43Z</time>
</trkpt>
<trkpt lat="34.9781164" lon="32.8094423">
<ele>1078.1</ele>
<time>2015-04-27T15:16:55Z</time>
</trkpt>
<trkpt lat="34.9767731" lon="32.8098115">
<ele>1079.3</ele>
<time>2015-04-27T15:17:22Z</time>
</trkpt>
<trkpt lat="34.9751774" lon="32.8093372">
<ele>1090.4</ele>
<time>2015-04-27T15:18:29Z</time>
</trkpt>
<trkpt lat="34.9747686" lon="32.8098133">
<ele>1092.3</ele>
<time>2015-04-27T15:19:00Z</time>
</trkpt>
<trkpt lat="34.9739020" lon="32.8103449">
<ele>1098.4</ele>
<time>2015-04-27T15:19:46Z</time>
</trkpt>
<trkpt lat="34.9736709" lon="32.8110915">
<ele>1093.9</ele>
<time>2015-04-27T15:20:28Z</time>
</trkpt>
<trkpt lat="34.9726254" lon="32.8113012">
<ele>1102.4</ele>
<time>2015-04-27T15:21:39Z</time>
</trkpt>
<trkpt lat="34.9719516" lon="32.8118321">
<ele>1101.5</ele>
<time>2015-04-27T15:22:24Z</time>
</trkpt>
<trkpt lat="34.9710784" lon="32.8121726">
<ele>1108.4</ele>
<time>2015-04-27T15:23:15Z</time>
</trkpt>
<trkpt lat="34.9709623" lon="32.8123820">
<ele>1113.9</ele>
<time>2015-04-27T15:23:26Z</time>
</trkpt>
<trkpt lat="34.9711654" lon="32.8137054">
<ele>1107.8</ele>
<time>2015-04-27T15:24:12Z</time>
</trkpt>
<trkpt lat="34.9708901" lon="32.8140608">
<ele>1102.7</ele>
<time>2015-04-27T15:24:27Z</time>
</trkpt>
<trkpt lat="34.9706447" lon="32.8140654">
<ele>1101.4</ele>
<time>2015-04-27T15:24:35Z</time>
</trkpt>
<trkpt lat="34.9698999" lon="32.8135866">
<ele>1108.4</ele>
<time>2015-04-27T15:25:07Z</time>
</trkpt>
<trkpt lat="34.9693934" lon="32.8138954">
<ele>1108.1</ele>
<time>2015-04-27T15:25:25Z</time>
</trkpt>
<trkpt lat="34.9681993" lon="32.8137426">
<ele>1112.9</ele>
<time>2015-04-27T15:25:48Z</time>
</trkpt>
<trkpt lat="34.9675928" lon="32.8143135">
<ele>1114.6</ele>
<time>2015-04-27T15:26:00Z</time>
</trkpt>
<trkpt lat="34.9675374" lon="32.8151197">
<ele>1115.8</ele>
<time>2015-04-27T15:26:13Z</time>
</trkpt>
<trkpt lat="34.9677800" lon="32.8158829">
<ele>1113.7</ele>
<time>2015-04-27T15:26:24Z</time>
</trkpt>
<trkpt lat="34.9676342" lon="32.8170796">
<ele>1115.6</ele>
<time>2015-04-27T15:26:40Z</time>
</trkpt>
<trkpt lat="34.9682512" lon="32.8188874">
<ele>1116.4</ele>
<time>2015-04-27T15:27:10Z</time>
</trkpt>
<trkpt lat="34.9677080" lon="32.8199575">
<ele>1119.7</ele>
<time>2015-04-27T15:28:06Z</time>
</trkpt>
<trkpt lat="34.9673914" lon="32.8201615">
<ele>1121.1</ele>
<time>2015-04-27T15:28:31Z</time>
</trkpt>
<trkpt lat="34.9671475" lon="32.8200867">
<ele>1123.1</ele>
<time>2015-04-27T15:28:47Z</time>
</trkpt>
<trkpt lat="34.9664395" lon="32.8192758">
<ele>1127.9</ele>
<time>2015-04-27T15:29:41Z</time>
</trkpt>
<trkpt lat="34.9662323" lon="32.8193161">
<ele>1130.3</ele>
<time>2015-04-27T15:29:52Z</time>
</trkpt>
<trkpt lat="34.9658948" lon="32.8203521">
<ele>1145.9</ele>
<time>2015-04-27T15:30:26Z</time>
</trkpt>
<trkpt lat="34.9661253" lon="32.8220234">
<ele>1139.8</ele>
<time>2015-04-27T15:31:16Z</time>
</trkpt>
<trkpt lat="34.9662674" lon="32.8222405">
<ele>1139.1</ele>
<time>2015-04-27T15:31:20Z</time>
</trkpt>
<trkpt lat="34.9669481" lon="32.8225591">
<ele>1141.5</ele>
<time>2015-04-27T15:31:34Z</time>
</trkpt>
<trkpt lat="34.9674650" lon="32.8224674">
<ele>1140.0</ele>
<time>2015-04-27T15:31:52Z</time>
</trkpt>
<trkpt lat="34.9681010" lon="32.8226707">
<ele>1142.6</ele>
<time>2015-04-27T15:32:39Z</time>
</trkpt>
<trkpt lat="34.9685015" lon="32.8240342">
<ele>1156.3</ele>
<time>2015-04-27T15:34:02Z</time>
</trkpt>
<trkpt lat="34.9694779" lon="32.8241739">
<ele>1155.8</ele>
<time>2015-04-27T15:35:05Z</time>
</trkpt>
<trkpt lat="34.9695296" lon="32.8245291">
<ele>1152.4</ele>
<time>2015-04-27T15:36:40Z</time>
</trkpt>
<trkpt lat="34.9696632" lon="32.8244540">
<ele>1152.2</ele>
<time>2015-04-27T15:37:50Z</time>
</trkpt>
<trkpt lat="34.9686400" lon="32.8255181">
<ele>1155.8</ele>
<time>2015-04-27T15:40:27Z</time>
</trkpt>
<trkpt lat="34.9674690" lon="32.8260084">
<ele>1160.5</ele>
<time>2015-04-27T15:41:17Z</time>
</trkpt>
<trkpt lat="34.9653745" lon="32.8277760">
<ele>1169.4</ele>
<time>2015-04-27T15:42:53Z</time>
</trkpt>
<trkpt lat="34.9646885" lon="32.8281814">
<ele>1170.8</ele>
<time>2015-04-27T15:43:29Z</time>
</trkpt>
<trkpt lat="34.9617573" lon="32.8288451">
<ele>1160.9</ele>
<time>2015-04-27T15:44:49Z</time>
</trkpt>
<trkpt lat="34.9642102" lon="32.8289270">
<ele>1137.2</ele>
<time>2015-04-27T15:45:18Z</time>
</trkpt>
<trkpt lat="34.9650112" lon="32.8291328">
<ele>1129.7</ele>
<time>2015-04-27T15:45:29Z</time>
</trkpt>
<trkpt lat="34.9670227" lon="32.8274530">
<ele>1118.1</ele>
<time>2015-04-27T15:46:06Z</time>
</trkpt>
<trkpt lat="34.9674617" lon="32.8274473">
<ele>1110.1</ele>
<time>2015-04-27T15:46:17Z</time>
</trkpt>
<trkpt lat="34.9679543" lon="32.8277807">
<ele>1106.9</ele>
<time>2015-04-27T15:47:37Z</time>
</trkpt>
</trkseg>
</trk>
</gpx>